<?xml version="1.0" encoding="UTF-8" standalone="no" ?>
<gpx xmlns="http://www.topografix.com/GPX/1/1" xmlns:xsi="http://www.w3.org/2001/XMLSchema-instance" xsi:schemaLocation="http://www.topografix.com/GPX/1/1 http://www.topografix.com/GPX/1/1/gpx.xsd" version="1.1" creator="VisuGPX - https://www.visugpx.com">
  <metadata>
    <name>Castelculier Cabalsau</name>
    <desc><![CDATA[Circuit depuis l'église de Cabalsau, commune de Castelculier]]></desc>
  </metadata>
  <trk>
    <name><![CDATA[Saint-Pierre-de-Clairac Randonnée pédestre]]></name>
    <extensions>
      <line xmlns="http://www.topografix.com/GPX/gpx_style/0/2">
        <color>0000FF</color>
        <width>4</width>
      </line>
    </extensions>
    <trkseg>
      <trkpt lat="44.18708" lon="0.7372">
        <ele>87.9</ele>
        <time>2017-10-12T07:11:29.000Z</time>
      </trkpt>
      <trkpt lat="44.18708" lon="0.73713">
        <ele>87.4</ele>
        <time>2017-10-12T07:11:51.000Z</time>
      </trkpt>
      <trkpt lat="44.18713" lon="0.73706">
        <ele>87.1</ele>
        <time>2017-10-12T07:11:59.000Z</time>
      </trkpt>
      <trkpt lat="44.18712" lon="0.73702">
        <ele>86.8</ele>
        <time>2017-10-12T07:12:04.000Z</time>
      </trkpt>
      <trkpt lat="44.1871" lon="0.73697">
        <ele>86.2</ele>
        <time>2017-10-12T07:12:10.000Z</time>
      </trkpt>
      <trkpt lat="44.18709" lon="0.73694">
        <ele>85.8</ele>
        <time>2017-10-12T07:12:16.000Z</time>
      </trkpt>
      <trkpt lat="44.18709" lon="0.73699">
        <ele>86.2</ele>
        <time>2017-10-12T07:12:22.000Z</time>
      </trkpt>
      <trkpt lat="44.18712" lon="0.73695">
        <ele>86.1</ele>
        <time>2017-10-12T07:12:28.000Z</time>
      </trkpt>
      <trkpt lat="44.1872" lon="0.73702">
        <ele>87.3</ele>
        <time>2017-10-12T07:12:34.000Z</time>
      </trkpt>
      <trkpt lat="44.1872" lon="0.73701">
        <ele>87.2</ele>
        <time>2017-10-12T07:12:38.000Z</time>
      </trkpt>
      <trkpt lat="44.18717" lon="0.73702">
        <ele>87.1</ele>
        <time>2017-10-12T07:12:42.000Z</time>
      </trkpt>
      <trkpt lat="44.18714" lon="0.73702">
        <ele>86.8</ele>
        <time>2017-10-12T07:12:47.000Z</time>
      </trkpt>
      <trkpt lat="44.18709" lon="0.73702">
        <ele>86.5</ele>
        <time>2017-10-12T07:12:54.000Z</time>
      </trkpt>
      <trkpt lat="44.18708" lon="0.73704">
        <ele>86.6</ele>
        <time>2017-10-12T07:13:03.000Z</time>
      </trkpt>
      <trkpt lat="44.18708" lon="0.73697">
        <ele>85.9</ele>
        <time>2017-10-12T07:13:11.000Z</time>
      </trkpt>
      <trkpt lat="44.18709" lon="0.7369">
        <ele>85.5</ele>
        <time>2017-10-12T07:13:18.000Z</time>
      </trkpt>
      <trkpt lat="44.1871" lon="0.73688">
        <ele>85.4</ele>
        <time>2017-10-12T07:13:26.000Z</time>
      </trkpt>
      <trkpt lat="44.18712" lon="0.73694">
        <ele>86</ele>
        <time>2017-10-12T07:13:34.000Z</time>
      </trkpt>
      <trkpt lat="44.18708" lon="0.73697">
        <ele>86</ele>
        <time>2017-10-12T07:13:44.000Z</time>
      </trkpt>
      <trkpt lat="44.18709" lon="0.73686">
        <ele>85.2</ele>
        <time>2017-10-12T07:13:50.000Z</time>
      </trkpt>
      <trkpt lat="44.18707" lon="0.73679">
        <ele>84.4</ele>
        <time>2017-10-12T07:13:56.000Z</time>
      </trkpt>
      <trkpt lat="44.18697" lon="0.73689">
        <ele>84.6</ele>
        <time>2017-10-12T07:14:03.000Z</time>
      </trkpt>
      <trkpt lat="44.18691" lon="0.7368">
        <ele>83.6</ele>
        <time>2017-10-12T07:14:10.000Z</time>
      </trkpt>
      <trkpt lat="44.18686" lon="0.73676">
        <ele>82.9</ele>
        <time>2017-10-12T07:14:16.000Z</time>
      </trkpt>
      <trkpt lat="44.18687" lon="0.73681">
        <ele>83.4</ele>
        <time>2017-10-12T07:14:24.000Z</time>
      </trkpt>
      <trkpt lat="44.18686" lon="0.73682">
        <ele>83.4</ele>
        <time>2017-10-12T07:14:39.000Z</time>
      </trkpt>
      <trkpt lat="44.18676" lon="0.73698">
        <ele>83.9</ele>
        <time>2017-10-12T07:14:51.000Z</time>
      </trkpt>
      <trkpt lat="44.18658" lon="0.737">
        <ele>83.2</ele>
        <time>2017-10-12T07:15:00.000Z</time>
      </trkpt>
      <trkpt lat="44.18643" lon="0.73701">
        <ele>83</ele>
        <time>2017-10-12T07:15:08.000Z</time>
      </trkpt>
      <trkpt lat="44.18634" lon="0.73699">
        <ele>82.6</ele>
        <time>2017-10-12T07:15:18.000Z</time>
      </trkpt>
      <trkpt lat="44.18617" lon="0.73696">
        <ele>81.9</ele>
        <time>2017-10-12T07:15:31.000Z</time>
      </trkpt>
      <trkpt lat="44.18606" lon="0.73692">
        <ele>81.3</ele>
        <time>2017-10-12T07:15:40.000Z</time>
      </trkpt>
      <trkpt lat="44.18596" lon="0.73694">
        <ele>81.2</ele>
        <time>2017-10-12T07:15:49.000Z</time>
      </trkpt>
      <trkpt lat="44.18586" lon="0.73691">
        <ele>80.7</ele>
        <time>2017-10-12T07:15:57.000Z</time>
      </trkpt>
      <trkpt lat="44.18576" lon="0.73689">
        <ele>80.1</ele>
        <time>2017-10-12T07:16:05.000Z</time>
      </trkpt>
      <trkpt lat="44.18567" lon="0.73689">
        <ele>79.7</ele>
        <time>2017-10-12T07:16:13.000Z</time>
      </trkpt>
      <trkpt lat="44.18555" lon="0.73684">
        <ele>78.8</ele>
        <time>2017-10-12T07:16:21.000Z</time>
      </trkpt>
      <trkpt lat="44.18545" lon="0.7368">
        <ele>78</ele>
        <time>2017-10-12T07:16:29.000Z</time>
      </trkpt>
      <trkpt lat="44.18535" lon="0.73677">
        <ele>77.3</ele>
        <time>2017-10-12T07:16:36.000Z</time>
      </trkpt>
      <trkpt lat="44.18526" lon="0.73675">
        <ele>76.7</ele>
        <time>2017-10-12T07:16:43.000Z</time>
      </trkpt>
      <trkpt lat="44.18516" lon="0.73674">
        <ele>76.3</ele>
        <time>2017-10-12T07:16:51.000Z</time>
      </trkpt>
      <trkpt lat="44.18506" lon="0.73671">
        <ele>75.7</ele>
        <time>2017-10-12T07:16:58.000Z</time>
      </trkpt>
      <trkpt lat="44.18497" lon="0.73668">
        <ele>75.1</ele>
        <time>2017-10-12T07:17:05.000Z</time>
      </trkpt>
      <trkpt lat="44.18489" lon="0.73669">
        <ele>75.2</ele>
        <time>2017-10-12T07:17:13.000Z</time>
      </trkpt>
      <trkpt lat="44.18477" lon="0.73669">
        <ele>75.2</ele>
        <time>2017-10-12T07:17:22.000Z</time>
      </trkpt>
      <trkpt lat="44.18467" lon="0.73664">
        <ele>74.9</ele>
        <time>2017-10-12T07:17:30.000Z</time>
      </trkpt>
      <trkpt lat="44.18457" lon="0.73659">
        <ele>74.6</ele>
        <time>2017-10-12T07:17:38.000Z</time>
      </trkpt>
      <trkpt lat="44.18447" lon="0.73655">
        <ele>74.2</ele>
        <time>2017-10-12T07:17:46.000Z</time>
      </trkpt>
      <trkpt lat="44.18438" lon="0.7366">
        <ele>74.6</ele>
        <time>2017-10-12T07:17:55.000Z</time>
      </trkpt>
      <trkpt lat="44.18438" lon="0.73673">
        <ele>75.7</ele>
        <time>2017-10-12T07:18:03.000Z</time>
      </trkpt>
      <trkpt lat="44.18441" lon="0.73685">
        <ele>76.9</ele>
        <time>2017-10-12T07:18:09.000Z</time>
      </trkpt>
      <trkpt lat="44.18445" lon="0.73696">
        <ele>78</ele>
        <time>2017-10-12T07:18:16.000Z</time>
      </trkpt>
      <trkpt lat="44.18447" lon="0.73707">
        <ele>79.2</ele>
        <time>2017-10-12T07:18:24.000Z</time>
      </trkpt>
      <trkpt lat="44.18442" lon="0.73719">
        <ele>80.5</ele>
        <time>2017-10-12T07:18:32.000Z</time>
      </trkpt>
      <trkpt lat="44.18446" lon="0.73733">
        <ele>81.8</ele>
        <time>2017-10-12T07:18:40.000Z</time>
      </trkpt>
      <trkpt lat="44.18449" lon="0.73746">
        <ele>83.2</ele>
        <time>2017-10-12T07:18:47.000Z</time>
      </trkpt>
      <trkpt lat="44.18447" lon="0.73757">
        <ele>84.2</ele>
        <time>2017-10-12T07:18:55.000Z</time>
      </trkpt>
      <trkpt lat="44.18442" lon="0.73773">
        <ele>85.5</ele>
        <time>2017-10-12T07:19:03.000Z</time>
      </trkpt>
      <trkpt lat="44.18442" lon="0.73785">
        <ele>86.5</ele>
        <time>2017-10-12T07:19:13.000Z</time>
      </trkpt>
      <trkpt lat="44.18442" lon="0.73801">
        <ele>87.8</ele>
        <time>2017-10-12T07:19:22.000Z</time>
      </trkpt>
      <trkpt lat="44.18448" lon="0.73816">
        <ele>88.9</ele>
        <time>2017-10-12T07:19:29.000Z</time>
      </trkpt>
      <trkpt lat="44.18451" lon="0.73835">
        <ele>90.2</ele>
        <time>2017-10-12T07:19:37.000Z</time>
      </trkpt>
      <trkpt lat="44.18451" lon="0.73847">
        <ele>90.3</ele>
        <time>2017-10-12T07:19:44.000Z</time>
      </trkpt>
      <trkpt lat="44.1845" lon="0.7386">
        <ele>90.3</ele>
        <time>2017-10-12T07:19:52.000Z</time>
      </trkpt>
      <trkpt lat="44.18446" lon="0.73874">
        <ele>90.2</ele>
        <time>2017-10-12T07:19:59.000Z</time>
      </trkpt>
      <trkpt lat="44.18443" lon="0.73884">
        <ele>90.1</ele>
        <time>2017-10-12T07:20:08.000Z</time>
      </trkpt>
      <trkpt lat="44.18438" lon="0.73895">
        <ele>89.6</ele>
        <time>2017-10-12T07:20:17.000Z</time>
      </trkpt>
      <trkpt lat="44.18435" lon="0.73909">
        <ele>89.1</ele>
        <time>2017-10-12T07:20:25.000Z</time>
      </trkpt>
      <trkpt lat="44.18432" lon="0.73923">
        <ele>88.2</ele>
        <time>2017-10-12T07:20:33.000Z</time>
      </trkpt>
      <trkpt lat="44.18432" lon="0.73936">
        <ele>87.6</ele>
        <time>2017-10-12T07:20:40.000Z</time>
      </trkpt>
      <trkpt lat="44.1843" lon="0.73947">
        <ele>86.6</ele>
        <time>2017-10-12T07:20:48.000Z</time>
      </trkpt>
      <trkpt lat="44.18419" lon="0.73957">
        <ele>84.4</ele>
        <time>2017-10-12T07:20:56.000Z</time>
      </trkpt>
      <trkpt lat="44.18418" lon="0.73965">
        <ele>83.7</ele>
        <time>2017-10-12T07:21:03.000Z</time>
      </trkpt>
      <trkpt lat="44.18414" lon="0.73976">
        <ele>82.6</ele>
        <time>2017-10-12T07:21:11.000Z</time>
      </trkpt>
      <trkpt lat="44.18412" lon="0.73985">
        <ele>81.7</ele>
        <time>2017-10-12T07:21:20.000Z</time>
      </trkpt>
      <trkpt lat="44.18408" lon="0.73997">
        <ele>80.6</ele>
        <time>2017-10-12T07:21:28.000Z</time>
      </trkpt>
      <trkpt lat="44.18412" lon="0.74009">
        <ele>80.6</ele>
        <time>2017-10-12T07:21:36.000Z</time>
      </trkpt>
      <trkpt lat="44.18414" lon="0.74021">
        <ele>80.7</ele>
        <time>2017-10-12T07:21:44.000Z</time>
      </trkpt>
      <trkpt lat="44.18413" lon="0.74036">
        <ele>80.6</ele>
        <time>2017-10-12T07:21:52.000Z</time>
      </trkpt>
      <trkpt lat="44.18415" lon="0.7405">
        <ele>80.8</ele>
        <time>2017-10-12T07:22:01.000Z</time>
      </trkpt>
      <trkpt lat="44.18416" lon="0.74064">
        <ele>81</ele>
        <time>2017-10-12T07:22:09.000Z</time>
      </trkpt>
      <trkpt lat="44.18416" lon="0.74076">
        <ele>80.9</ele>
        <time>2017-10-12T07:22:16.000Z</time>
      </trkpt>
      <trkpt lat="44.18413" lon="0.74088">
        <ele>80.2</ele>
        <time>2017-10-12T07:22:24.000Z</time>
      </trkpt>
      <trkpt lat="44.18409" lon="0.74102">
        <ele>79.2</ele>
        <time>2017-10-12T07:22:32.000Z</time>
      </trkpt>
      <trkpt lat="44.18408" lon="0.74116">
        <ele>78.5</ele>
        <time>2017-10-12T07:22:40.000Z</time>
      </trkpt>
      <trkpt lat="44.18405" lon="0.74128">
        <ele>77.8</ele>
        <time>2017-10-12T07:22:48.000Z</time>
      </trkpt>
      <trkpt lat="44.18412" lon="0.7414">
        <ele>78.2</ele>
        <time>2017-10-12T07:22:57.000Z</time>
      </trkpt>
      <trkpt lat="44.18409" lon="0.74149">
        <ele>77.5</ele>
        <time>2017-10-12T07:23:05.000Z</time>
      </trkpt>
      <trkpt lat="44.18424" lon="0.74203">
        <ele>75.3</ele>
        <time>2017-10-12T07:23:44.000Z</time>
      </trkpt>
      <trkpt lat="44.18428" lon="0.74217">
        <ele>74.3</ele>
        <time>2017-10-12T07:23:53.000Z</time>
      </trkpt>
      <trkpt lat="44.18432" lon="0.74231">
        <ele>73.2</ele>
        <time>2017-10-12T07:24:03.000Z</time>
      </trkpt>
      <trkpt lat="44.18439" lon="0.74243">
        <ele>72.4</ele>
        <time>2017-10-12T07:24:12.000Z</time>
      </trkpt>
      <trkpt lat="44.18445" lon="0.74256">
        <ele>71.5</ele>
        <time>2017-10-12T07:24:21.000Z</time>
      </trkpt>
      <trkpt lat="44.1845" lon="0.7427">
        <ele>70.6</ele>
        <time>2017-10-12T07:24:30.000Z</time>
      </trkpt>
      <trkpt lat="44.18456" lon="0.74283">
        <ele>69.8</ele>
        <time>2017-10-12T07:24:38.000Z</time>
      </trkpt>
      <trkpt lat="44.18459" lon="0.74296">
        <ele>68.9</ele>
        <time>2017-10-12T07:24:46.000Z</time>
      </trkpt>
      <trkpt lat="44.18464" lon="0.74308">
        <ele>68.1</ele>
        <time>2017-10-12T07:24:54.000Z</time>
      </trkpt>
      <trkpt lat="44.18465" lon="0.74323">
        <ele>66.9</ele>
        <time>2017-10-12T07:25:02.000Z</time>
      </trkpt>
      <trkpt lat="44.18465" lon="0.74339">
        <ele>65.7</ele>
        <time>2017-10-12T07:25:10.000Z</time>
      </trkpt>
      <trkpt lat="44.18462" lon="0.74356">
        <ele>65.2</ele>
        <time>2017-10-12T07:25:18.000Z</time>
      </trkpt>
      <trkpt lat="44.18459" lon="0.74371">
        <ele>64.6</ele>
        <time>2017-10-12T07:25:26.000Z</time>
      </trkpt>
      <trkpt lat="44.18456" lon="0.74384">
        <ele>64.2</ele>
        <time>2017-10-12T07:25:33.000Z</time>
      </trkpt>
      <trkpt lat="44.18452" lon="0.74398">
        <ele>63.7</ele>
        <time>2017-10-12T07:25:41.000Z</time>
      </trkpt>
      <trkpt lat="44.1845" lon="0.7441">
        <ele>63.3</ele>
        <time>2017-10-12T07:25:48.000Z</time>
      </trkpt>
      <trkpt lat="44.18448" lon="0.74422">
        <ele>63</ele>
        <time>2017-10-12T07:25:55.000Z</time>
      </trkpt>
      <trkpt lat="44.18445" lon="0.74434">
        <ele>62.6</ele>
        <time>2017-10-12T07:26:02.000Z</time>
      </trkpt>
      <trkpt lat="44.18442" lon="0.74444">
        <ele>62.3</ele>
        <time>2017-10-12T07:26:09.000Z</time>
      </trkpt>
      <trkpt lat="44.18439" lon="0.74458">
        <ele>61.8</ele>
        <time>2017-10-12T07:26:17.000Z</time>
      </trkpt>
      <trkpt lat="44.18436" lon="0.74471">
        <ele>61.4</ele>
        <time>2017-10-12T07:26:25.000Z</time>
      </trkpt>
      <trkpt lat="44.18434" lon="0.74484">
        <ele>61</ele>
        <time>2017-10-12T07:26:33.000Z</time>
      </trkpt>
      <trkpt lat="44.18431" lon="0.74495">
        <ele>60.6</ele>
        <time>2017-10-12T07:26:41.000Z</time>
      </trkpt>
      <trkpt lat="44.18441" lon="0.74497">
        <ele>60.9</ele>
        <time>2017-10-12T07:26:49.000Z</time>
      </trkpt>
      <trkpt lat="44.18451" lon="0.74494">
        <ele>61.4</ele>
        <time>2017-10-12T07:26:57.000Z</time>
      </trkpt>
      <trkpt lat="44.18462" lon="0.74495">
        <ele>61.7</ele>
        <time>2017-10-12T07:27:06.000Z</time>
      </trkpt>
      <trkpt lat="44.18473" lon="0.74496">
        <ele>62.1</ele>
        <time>2017-10-12T07:27:14.000Z</time>
      </trkpt>
      <trkpt lat="44.18483" lon="0.74497">
        <ele>62.5</ele>
        <time>2017-10-12T07:27:22.000Z</time>
      </trkpt>
      <trkpt lat="44.18494" lon="0.74497">
        <ele>62.8</ele>
        <time>2017-10-12T07:27:30.000Z</time>
      </trkpt>
      <trkpt lat="44.18505" lon="0.74499">
        <ele>63.1</ele>
        <time>2017-10-12T07:27:39.000Z</time>
      </trkpt>
      <trkpt lat="44.18514" lon="0.74501">
        <ele>63.2</ele>
        <time>2017-10-12T07:27:48.000Z</time>
      </trkpt>
      <trkpt lat="44.18526" lon="0.74504">
        <ele>63.3</ele>
        <time>2017-10-12T07:27:57.000Z</time>
      </trkpt>
      <trkpt lat="44.18537" lon="0.74507">
        <ele>63.4</ele>
        <time>2017-10-12T07:28:05.000Z</time>
      </trkpt>
      <trkpt lat="44.18548" lon="0.74513">
        <ele>63.4</ele>
        <time>2017-10-12T07:28:14.000Z</time>
      </trkpt>
      <trkpt lat="44.18558" lon="0.74519">
        <ele>63.5</ele>
        <time>2017-10-12T07:28:23.000Z</time>
      </trkpt>
      <trkpt lat="44.18568" lon="0.74524">
        <ele>63.5</ele>
        <time>2017-10-12T07:28:32.000Z</time>
      </trkpt>
      <trkpt lat="44.18576" lon="0.74531">
        <ele>63.5</ele>
        <time>2017-10-12T07:28:41.000Z</time>
      </trkpt>
      <trkpt lat="44.18585" lon="0.74538">
        <ele>63.6</ele>
        <time>2017-10-12T07:28:49.000Z</time>
      </trkpt>
      <trkpt lat="44.18595" lon="0.74546">
        <ele>64</ele>
        <time>2017-10-12T07:28:59.000Z</time>
      </trkpt>
      <trkpt lat="44.18607" lon="0.74551">
        <ele>64.5</ele>
        <time>2017-10-12T07:29:07.000Z</time>
      </trkpt>
      <trkpt lat="44.18618" lon="0.74557">
        <ele>64.8</ele>
        <time>2017-10-12T07:29:17.000Z</time>
      </trkpt>
      <trkpt lat="44.18619" lon="0.74559">
        <ele>64.8</ele>
        <time>2017-10-12T07:29:19.000Z</time>
      </trkpt>
      <trkpt lat="44.18677" lon="0.74565">
        <ele>67.5</ele>
        <time>2017-10-12T07:30:47.000Z</time>
      </trkpt>
      <trkpt lat="44.18688" lon="0.74563">
        <ele>68.4</ele>
        <time>2017-10-12T07:30:55.000Z</time>
      </trkpt>
      <trkpt lat="44.18697" lon="0.74562">
        <ele>69.3</ele>
        <time>2017-10-12T07:31:03.000Z</time>
      </trkpt>
      <trkpt lat="44.18707" lon="0.74562">
        <ele>70.1</ele>
        <time>2017-10-12T07:31:11.000Z</time>
      </trkpt>
      <trkpt lat="44.18715" lon="0.74558">
        <ele>71.1</ele>
        <time>2017-10-12T07:31:20.000Z</time>
      </trkpt>
      <trkpt lat="44.18724" lon="0.74554">
        <ele>72.2</ele>
        <time>2017-10-12T07:31:29.000Z</time>
      </trkpt>
      <trkpt lat="44.18735" lon="0.7455">
        <ele>73.6</ele>
        <time>2017-10-12T07:31:37.000Z</time>
      </trkpt>
      <trkpt lat="44.18736" lon="0.74555">
        <ele>73.2</ele>
        <time>2017-10-12T07:31:47.000Z</time>
      </trkpt>
      <trkpt lat="44.18761" lon="0.74542">
        <ele>75.9</ele>
        <time>2017-10-12T07:32:09.000Z</time>
      </trkpt>
      <trkpt lat="44.18771" lon="0.7454">
        <ele>76.1</ele>
        <time>2017-10-12T07:32:17.000Z</time>
      </trkpt>
      <trkpt lat="44.18781" lon="0.74539">
        <ele>76.1</ele>
        <time>2017-10-12T07:32:25.000Z</time>
      </trkpt>
      <trkpt lat="44.18792" lon="0.74541">
        <ele>75.8</ele>
        <time>2017-10-12T07:32:33.000Z</time>
      </trkpt>
      <trkpt lat="44.18803" lon="0.74542">
        <ele>75.6</ele>
        <time>2017-10-12T07:32:41.000Z</time>
      </trkpt>
      <trkpt lat="44.18813" lon="0.74545">
        <ele>75.3</ele>
        <time>2017-10-12T07:32:49.000Z</time>
      </trkpt>
      <trkpt lat="44.18822" lon="0.74549">
        <ele>74.9</ele>
        <time>2017-10-12T07:32:57.000Z</time>
      </trkpt>
      <trkpt lat="44.18831" lon="0.74552">
        <ele>74.6</ele>
        <time>2017-10-12T07:33:05.000Z</time>
      </trkpt>
      <trkpt lat="44.18841" lon="0.74555">
        <ele>74.5</ele>
        <time>2017-10-12T07:33:14.000Z</time>
      </trkpt>
      <trkpt lat="44.1885" lon="0.74554">
        <ele>74.8</ele>
        <time>2017-10-12T07:33:22.000Z</time>
      </trkpt>
      <trkpt lat="44.18862" lon="0.74553">
        <ele>75.2</ele>
        <time>2017-10-12T07:33:32.000Z</time>
      </trkpt>
      <trkpt lat="44.18873" lon="0.74552">
        <ele>75.6</ele>
        <time>2017-10-12T07:33:41.000Z</time>
      </trkpt>
      <trkpt lat="44.18883" lon="0.7455">
        <ele>76</ele>
        <time>2017-10-12T07:33:49.000Z</time>
      </trkpt>
      <trkpt lat="44.18893" lon="0.74548">
        <ele>76.4</ele>
        <time>2017-10-12T07:33:58.000Z</time>
      </trkpt>
      <trkpt lat="44.18903" lon="0.74548">
        <ele>76.6</ele>
        <time>2017-10-12T07:34:06.000Z</time>
      </trkpt>
      <trkpt lat="44.18913" lon="0.74546">
        <ele>77</ele>
        <time>2017-10-12T07:34:14.000Z</time>
      </trkpt>
      <trkpt lat="44.18922" lon="0.74547">
        <ele>77.2</ele>
        <time>2017-10-12T07:34:22.000Z</time>
      </trkpt>
      <trkpt lat="44.18933" lon="0.74546">
        <ele>77.7</ele>
        <time>2017-10-12T07:34:32.000Z</time>
      </trkpt>
      <trkpt lat="44.18943" lon="0.74545">
        <ele>78</ele>
        <time>2017-10-12T07:34:40.000Z</time>
      </trkpt>
      <trkpt lat="44.18952" lon="0.74545">
        <ele>78.3</ele>
        <time>2017-10-12T07:34:48.000Z</time>
      </trkpt>
      <trkpt lat="44.18962" lon="0.74546">
        <ele>78.5</ele>
        <time>2017-10-12T07:34:57.000Z</time>
      </trkpt>
      <trkpt lat="44.18972" lon="0.74551">
        <ele>78.4</ele>
        <time>2017-10-12T07:35:07.000Z</time>
      </trkpt>
      <trkpt lat="44.18977" lon="0.74551">
        <ele>78.6</ele>
        <time>2017-10-12T07:35:13.000Z</time>
      </trkpt>
      <trkpt lat="44.19018" lon="0.74566">
        <ele>79.2</ele>
        <time>2017-10-12T07:35:50.000Z</time>
      </trkpt>
      <trkpt lat="44.19026" lon="0.74569">
        <ele>79.3</ele>
        <time>2017-10-12T07:35:57.000Z</time>
      </trkpt>
      <trkpt lat="44.19034" lon="0.74572">
        <ele>79.5</ele>
        <time>2017-10-12T07:36:06.000Z</time>
      </trkpt>
      <trkpt lat="44.19045" lon="0.74577">
        <ele>79.7</ele>
        <time>2017-10-12T07:36:14.000Z</time>
      </trkpt>
      <trkpt lat="44.19053" lon="0.74581">
        <ele>79.8</ele>
        <time>2017-10-12T07:36:22.000Z</time>
      </trkpt>
      <trkpt lat="44.19063" lon="0.74584">
        <ele>80</ele>
        <time>2017-10-12T07:36:31.000Z</time>
      </trkpt>
      <trkpt lat="44.19076" lon="0.74588">
        <ele>80.8</ele>
        <time>2017-10-12T07:36:40.000Z</time>
      </trkpt>
      <trkpt lat="44.19085" lon="0.74591">
        <ele>81.4</ele>
        <time>2017-10-12T07:36:48.000Z</time>
      </trkpt>
      <trkpt lat="44.19093" lon="0.74596">
        <ele>81.8</ele>
        <time>2017-10-12T07:36:56.000Z</time>
      </trkpt>
      <trkpt lat="44.19102" lon="0.746">
        <ele>82.1</ele>
        <time>2017-10-12T07:37:05.000Z</time>
      </trkpt>
      <trkpt lat="44.19109" lon="0.74603">
        <ele>82.5</ele>
        <time>2017-10-12T07:37:12.000Z</time>
      </trkpt>
      <trkpt lat="44.19118" lon="0.74606">
        <ele>82.8</ele>
        <time>2017-10-12T07:37:20.000Z</time>
      </trkpt>
      <trkpt lat="44.19126" lon="0.74608">
        <ele>83.2</ele>
        <time>2017-10-12T07:37:29.000Z</time>
      </trkpt>
      <trkpt lat="44.19137" lon="0.74611">
        <ele>83.6</ele>
        <time>2017-10-12T07:37:37.000Z</time>
      </trkpt>
      <trkpt lat="44.19147" lon="0.74613">
        <ele>84</ele>
        <time>2017-10-12T07:37:44.000Z</time>
      </trkpt>
      <trkpt lat="44.19156" lon="0.74615">
        <ele>84.4</ele>
        <time>2017-10-12T07:37:52.000Z</time>
      </trkpt>
      <trkpt lat="44.19165" lon="0.74616">
        <ele>84.7</ele>
        <time>2017-10-12T07:38:01.000Z</time>
      </trkpt>
      <trkpt lat="44.19173" lon="0.74618">
        <ele>84.9</ele>
        <time>2017-10-12T07:38:08.000Z</time>
      </trkpt>
      <trkpt lat="44.19183" lon="0.74618">
        <ele>84.8</ele>
        <time>2017-10-12T07:38:16.000Z</time>
      </trkpt>
      <trkpt lat="44.19193" lon="0.74618">
        <ele>84.8</ele>
        <time>2017-10-12T07:38:25.000Z</time>
      </trkpt>
      <trkpt lat="44.19203" lon="0.74618">
        <ele>84.8</ele>
        <time>2017-10-12T07:38:34.000Z</time>
      </trkpt>
      <trkpt lat="44.19213" lon="0.74618">
        <ele>84.7</ele>
        <time>2017-10-12T07:38:43.000Z</time>
      </trkpt>
      <trkpt lat="44.19224" lon="0.7462">
        <ele>84.8</ele>
        <time>2017-10-12T07:38:51.000Z</time>
      </trkpt>
      <trkpt lat="44.19234" lon="0.74621">
        <ele>84.9</ele>
        <time>2017-10-12T07:38:58.000Z</time>
      </trkpt>
      <trkpt lat="44.19244" lon="0.74622">
        <ele>84.9</ele>
        <time>2017-10-12T07:39:06.000Z</time>
      </trkpt>
      <trkpt lat="44.19255" lon="0.74622">
        <ele>85.3</ele>
        <time>2017-10-12T07:39:15.000Z</time>
      </trkpt>
      <trkpt lat="44.19265" lon="0.74621">
        <ele>86</ele>
        <time>2017-10-12T07:39:24.000Z</time>
      </trkpt>
      <trkpt lat="44.19275" lon="0.74621">
        <ele>86.8</ele>
        <time>2017-10-12T07:39:31.000Z</time>
      </trkpt>
      <trkpt lat="44.19285" lon="0.74621">
        <ele>87.6</ele>
        <time>2017-10-12T07:39:39.000Z</time>
      </trkpt>
      <trkpt lat="44.19295" lon="0.74619">
        <ele>88.3</ele>
        <time>2017-10-12T07:39:48.000Z</time>
      </trkpt>
      <trkpt lat="44.19306" lon="0.74619">
        <ele>89.2</ele>
        <time>2017-10-12T07:39:58.000Z</time>
      </trkpt>
      <trkpt lat="44.19317" lon="0.74613">
        <ele>90</ele>
        <time>2017-10-12T07:40:08.000Z</time>
      </trkpt>
      <trkpt lat="44.19328" lon="0.74613">
        <ele>90.9</ele>
        <time>2017-10-12T07:40:18.000Z</time>
      </trkpt>
      <trkpt lat="44.19339" lon="0.74615">
        <ele>91.5</ele>
        <time>2017-10-12T07:40:27.000Z</time>
      </trkpt>
      <trkpt lat="44.19351" lon="0.74623">
        <ele>91.7</ele>
        <time>2017-10-12T07:40:35.000Z</time>
      </trkpt>
      <trkpt lat="44.1936" lon="0.74633">
        <ele>91.9</ele>
        <time>2017-10-12T07:40:43.000Z</time>
      </trkpt>
      <trkpt lat="44.19367" lon="0.74645">
        <ele>91.9</ele>
        <time>2017-10-12T07:40:54.000Z</time>
      </trkpt>
      <trkpt lat="44.19372" lon="0.74658">
        <ele>92</ele>
        <time>2017-10-12T07:41:04.000Z</time>
      </trkpt>
      <trkpt lat="44.19374" lon="0.74672">
        <ele>92.9</ele>
        <time>2017-10-12T07:41:13.000Z</time>
      </trkpt>
      <trkpt lat="44.19376" lon="0.74682">
        <ele>94.3</ele>
        <time>2017-10-12T07:41:23.000Z</time>
      </trkpt>
      <trkpt lat="44.19398" lon="0.74733">
        <ele>100.5</ele>
        <time>2017-10-12T07:41:54.000Z</time>
      </trkpt>
      <trkpt lat="44.19401" lon="0.74746">
        <ele>101.8</ele>
        <time>2017-10-12T07:42:02.000Z</time>
      </trkpt>
      <trkpt lat="44.19405" lon="0.74756">
        <ele>102.4</ele>
        <time>2017-10-12T07:42:15.000Z</time>
      </trkpt>
      <trkpt lat="44.19408" lon="0.74771">
        <ele>103.4</ele>
        <time>2017-10-12T07:42:31.000Z</time>
      </trkpt>
      <trkpt lat="44.19408" lon="0.74786">
        <ele>104.5</ele>
        <time>2017-10-12T07:42:39.000Z</time>
      </trkpt>
      <trkpt lat="44.19409" lon="0.74799">
        <ele>105.4</ele>
        <time>2017-10-12T07:42:47.000Z</time>
      </trkpt>
      <trkpt lat="44.1941" lon="0.74811">
        <ele>106.2</ele>
        <time>2017-10-12T07:42:56.000Z</time>
      </trkpt>
      <trkpt lat="44.19414" lon="0.74824">
        <ele>106.7</ele>
        <time>2017-10-12T07:43:04.000Z</time>
      </trkpt>
      <trkpt lat="44.19418" lon="0.74836">
        <ele>106.9</ele>
        <time>2017-10-12T07:43:12.000Z</time>
      </trkpt>
      <trkpt lat="44.19424" lon="0.74847">
        <ele>106.8</ele>
        <time>2017-10-12T07:43:21.000Z</time>
      </trkpt>
      <trkpt lat="44.19427" lon="0.7486">
        <ele>107.1</ele>
        <time>2017-10-12T07:43:31.000Z</time>
      </trkpt>
      <trkpt lat="44.19427" lon="0.74873">
        <ele>107.9</ele>
        <time>2017-10-12T07:43:40.000Z</time>
      </trkpt>
      <trkpt lat="44.19427" lon="0.74873">
        <ele>108</ele>
        <time>2017-10-12T07:43:43.000Z</time>
      </trkpt>
      <trkpt lat="44.19416" lon="0.74905">
        <ele>110.5</ele>
        <time>2017-10-12T07:44:33.000Z</time>
      </trkpt>
      <trkpt lat="44.1941" lon="0.74915">
        <ele>111.8</ele>
        <time>2017-10-12T07:44:41.000Z</time>
      </trkpt>
      <trkpt lat="44.19404" lon="0.74919">
        <ele>113.1</ele>
        <time>2017-10-12T07:44:50.000Z</time>
      </trkpt>
      <trkpt lat="44.19394" lon="0.7492">
        <ele>114.5</ele>
        <time>2017-10-12T07:45:03.000Z</time>
      </trkpt>
      <trkpt lat="44.19385" lon="0.74916">
        <ele>115.2</ele>
        <time>2017-10-12T07:45:11.000Z</time>
      </trkpt>
      <trkpt lat="44.19377" lon="0.74911">
        <ele>116</ele>
        <time>2017-10-12T07:45:19.000Z</time>
      </trkpt>
      <trkpt lat="44.19367" lon="0.74906">
        <ele>117.1</ele>
        <time>2017-10-12T07:45:28.000Z</time>
      </trkpt>
      <trkpt lat="44.19358" lon="0.74901">
        <ele>118</ele>
        <time>2017-10-12T07:45:36.000Z</time>
      </trkpt>
      <trkpt lat="44.19348" lon="0.74893">
        <ele>118.9</ele>
        <time>2017-10-12T07:45:44.000Z</time>
      </trkpt>
      <trkpt lat="44.1934" lon="0.74889">
        <ele>119.8</ele>
        <time>2017-10-12T07:45:52.000Z</time>
      </trkpt>
      <trkpt lat="44.1933" lon="0.74885">
        <ele>120.9</ele>
        <time>2017-10-12T07:46:00.000Z</time>
      </trkpt>
      <trkpt lat="44.19322" lon="0.74882">
        <ele>122.1</ele>
        <time>2017-10-12T07:46:08.000Z</time>
      </trkpt>
      <trkpt lat="44.19313" lon="0.74878">
        <ele>123.2</ele>
        <time>2017-10-12T07:46:16.000Z</time>
      </trkpt>
      <trkpt lat="44.19303" lon="0.74879">
        <ele>124.5</ele>
        <time>2017-10-12T07:46:25.000Z</time>
      </trkpt>
      <trkpt lat="44.19294" lon="0.74879">
        <ele>125.9</ele>
        <time>2017-10-12T07:46:34.000Z</time>
      </trkpt>
      <trkpt lat="44.19284" lon="0.74881">
        <ele>127.6</ele>
        <time>2017-10-12T07:46:43.000Z</time>
      </trkpt>
      <trkpt lat="44.19274" lon="0.74884">
        <ele>129.6</ele>
        <time>2017-10-12T07:46:53.000Z</time>
      </trkpt>
      <trkpt lat="44.19265" lon="0.7489">
        <ele>132</ele>
        <time>2017-10-12T07:47:02.000Z</time>
      </trkpt>
      <trkpt lat="44.19256" lon="0.74894">
        <ele>134.4</ele>
        <time>2017-10-12T07:47:11.000Z</time>
      </trkpt>
      <trkpt lat="44.19247" lon="0.74898">
        <ele>136.3</ele>
        <time>2017-10-12T07:47:20.000Z</time>
      </trkpt>
      <trkpt lat="44.1924" lon="0.74905">
        <ele>137.5</ele>
        <time>2017-10-12T07:47:28.000Z</time>
      </trkpt>
      <trkpt lat="44.19234" lon="0.74915">
        <ele>139.6</ele>
        <time>2017-10-12T07:47:37.000Z</time>
      </trkpt>
      <trkpt lat="44.19236" lon="0.74926">
        <ele>140.8</ele>
        <time>2017-10-12T07:47:47.000Z</time>
      </trkpt>
      <trkpt lat="44.19241" lon="0.74937">
        <ele>141.8</ele>
        <time>2017-10-12T07:47:56.000Z</time>
      </trkpt>
      <trkpt lat="44.19249" lon="0.74947">
        <ele>142.6</ele>
        <time>2017-10-12T07:48:06.000Z</time>
      </trkpt>
      <trkpt lat="44.19258" lon="0.74953">
        <ele>141.8</ele>
        <time>2017-10-12T07:48:17.000Z</time>
      </trkpt>
      <trkpt lat="44.19264" lon="0.74957">
        <ele>141.1</ele>
        <time>2017-10-12T07:48:26.000Z</time>
      </trkpt>
      <trkpt lat="44.19328" lon="0.75014">
        <ele>139.8</ele>
        <time>2017-10-12T07:49:52.000Z</time>
      </trkpt>
      <trkpt lat="44.19336" lon="0.75027">
        <ele>140.8</ele>
        <time>2017-10-12T07:50:01.000Z</time>
      </trkpt>
      <trkpt lat="44.19341" lon="0.75038">
        <ele>141.6</ele>
        <time>2017-10-12T07:50:09.000Z</time>
      </trkpt>
      <trkpt lat="44.19347" lon="0.75049">
        <ele>142.2</ele>
        <time>2017-10-12T07:50:17.000Z</time>
      </trkpt>
      <trkpt lat="44.19355" lon="0.75061">
        <ele>142.7</ele>
        <time>2017-10-12T07:50:25.000Z</time>
      </trkpt>
      <trkpt lat="44.1936" lon="0.75071">
        <ele>143.2</ele>
        <time>2017-10-12T07:50:33.000Z</time>
      </trkpt>
      <trkpt lat="44.19365" lon="0.75081">
        <ele>144</ele>
        <time>2017-10-12T07:50:42.000Z</time>
      </trkpt>
      <trkpt lat="44.19372" lon="0.75092">
        <ele>143.5</ele>
        <time>2017-10-12T07:50:52.000Z</time>
      </trkpt>
      <trkpt lat="44.19376" lon="0.75104">
        <ele>143.4</ele>
        <time>2017-10-12T07:51:01.000Z</time>
      </trkpt>
      <trkpt lat="44.19373" lon="0.75119">
        <ele>144.7</ele>
        <time>2017-10-12T07:51:11.000Z</time>
      </trkpt>
      <trkpt lat="44.19373" lon="0.75119">
        <ele>144.8</ele>
        <time>2017-10-12T07:51:12.000Z</time>
      </trkpt>
      <trkpt lat="44.19365" lon="0.75164">
        <ele>148.1</ele>
        <time>2017-10-12T07:52:24.000Z</time>
      </trkpt>
      <trkpt lat="44.19361" lon="0.75176">
        <ele>148.7</ele>
        <time>2017-10-12T07:52:32.000Z</time>
      </trkpt>
      <trkpt lat="44.19358" lon="0.75188">
        <ele>149.1</ele>
        <time>2017-10-12T07:52:40.000Z</time>
      </trkpt>
      <trkpt lat="44.19352" lon="0.75201">
        <ele>149.8</ele>
        <time>2017-10-12T07:52:49.000Z</time>
      </trkpt>
      <trkpt lat="44.19348" lon="0.75214">
        <ele>150.3</ele>
        <time>2017-10-12T07:52:58.000Z</time>
      </trkpt>
      <trkpt lat="44.19345" lon="0.75227">
        <ele>150.7</ele>
        <time>2017-10-12T07:53:07.000Z</time>
      </trkpt>
      <trkpt lat="44.19343" lon="0.75239">
        <ele>150.9</ele>
        <time>2017-10-12T07:53:15.000Z</time>
      </trkpt>
      <trkpt lat="44.19337" lon="0.75254">
        <ele>151.6</ele>
        <time>2017-10-12T07:53:24.000Z</time>
      </trkpt>
      <trkpt lat="44.19334" lon="0.75266">
        <ele>151.8</ele>
        <time>2017-10-12T07:53:32.000Z</time>
      </trkpt>
      <trkpt lat="44.19332" lon="0.75278">
        <ele>151.7</ele>
        <time>2017-10-12T07:53:40.000Z</time>
      </trkpt>
      <trkpt lat="44.19323" lon="0.75298">
        <ele>151.9</ele>
        <time>2017-10-12T07:53:49.000Z</time>
      </trkpt>
      <trkpt lat="44.19321" lon="0.75315">
        <ele>151.8</ele>
        <time>2017-10-12T07:53:58.000Z</time>
      </trkpt>
      <trkpt lat="44.19323" lon="0.75327">
        <ele>151.6</ele>
        <time>2017-10-12T07:54:06.000Z</time>
      </trkpt>
      <trkpt lat="44.19328" lon="0.75337">
        <ele>151.3</ele>
        <time>2017-10-12T07:54:16.000Z</time>
      </trkpt>
      <trkpt lat="44.19338" lon="0.75344">
        <ele>150.6</ele>
        <time>2017-10-12T07:54:24.000Z</time>
      </trkpt>
      <trkpt lat="44.19341" lon="0.75355">
        <ele>150.4</ele>
        <time>2017-10-12T07:54:31.000Z</time>
      </trkpt>
      <trkpt lat="44.19344" lon="0.75366">
        <ele>150.2</ele>
        <time>2017-10-12T07:54:39.000Z</time>
      </trkpt>
      <trkpt lat="44.19347" lon="0.75379">
        <ele>150.2</ele>
        <time>2017-10-12T07:54:47.000Z</time>
      </trkpt>
      <trkpt lat="44.1935" lon="0.75391">
        <ele>150.1</ele>
        <time>2017-10-12T07:54:55.000Z</time>
      </trkpt>
      <trkpt lat="44.19353" lon="0.75404">
        <ele>150.1</ele>
        <time>2017-10-12T07:55:03.000Z</time>
      </trkpt>
      <trkpt lat="44.19354" lon="0.75417">
        <ele>150.3</ele>
        <time>2017-10-12T07:55:11.000Z</time>
      </trkpt>
      <trkpt lat="44.19354" lon="0.75431">
        <ele>150.1</ele>
        <time>2017-10-12T07:55:21.000Z</time>
      </trkpt>
      <trkpt lat="44.1936" lon="0.75442">
        <ele>149.6</ele>
        <time>2017-10-12T07:55:30.000Z</time>
      </trkpt>
      <trkpt lat="44.19364" lon="0.75453">
        <ele>149.2</ele>
        <time>2017-10-12T07:55:38.000Z</time>
      </trkpt>
      <trkpt lat="44.19369" lon="0.75464">
        <ele>148.8</ele>
        <time>2017-10-12T07:55:46.000Z</time>
      </trkpt>
      <trkpt lat="44.19373" lon="0.75475">
        <ele>148.6</ele>
        <time>2017-10-12T07:55:54.000Z</time>
      </trkpt>
      <trkpt lat="44.19379" lon="0.75487">
        <ele>148.3</ele>
        <time>2017-10-12T07:56:03.000Z</time>
      </trkpt>
      <trkpt lat="44.19381" lon="0.75498">
        <ele>148.3</ele>
        <time>2017-10-12T07:56:12.000Z</time>
      </trkpt>
      <trkpt lat="44.19386" lon="0.7551">
        <ele>147.2</ele>
        <time>2017-10-12T07:56:22.000Z</time>
      </trkpt>
      <trkpt lat="44.19384" lon="0.7551">
        <ele>147.2</ele>
        <time>2017-10-12T07:56:26.000Z</time>
      </trkpt>
      <trkpt lat="44.19397" lon="0.75512">
        <ele>146.6</ele>
        <time>2017-10-12T07:56:47.000Z</time>
      </trkpt>
      <trkpt lat="44.19404" lon="0.75506">
        <ele>147</ele>
        <time>2017-10-12T07:56:55.000Z</time>
      </trkpt>
      <trkpt lat="44.19409" lon="0.75493">
        <ele>147.2</ele>
        <time>2017-10-12T07:57:03.000Z</time>
      </trkpt>
      <trkpt lat="44.19417" lon="0.75486">
        <ele>146.6</ele>
        <time>2017-10-12T07:57:11.000Z</time>
      </trkpt>
      <trkpt lat="44.19425" lon="0.75478">
        <ele>146</ele>
        <time>2017-10-12T07:57:19.000Z</time>
      </trkpt>
      <trkpt lat="44.19431" lon="0.7547">
        <ele>145.3</ele>
        <time>2017-10-12T07:57:27.000Z</time>
      </trkpt>
      <trkpt lat="44.19438" lon="0.75465">
        <ele>144.5</ele>
        <time>2017-10-12T07:57:35.000Z</time>
      </trkpt>
      <trkpt lat="44.19449" lon="0.75459">
        <ele>143.6</ele>
        <time>2017-10-12T07:57:43.000Z</time>
      </trkpt>
      <trkpt lat="44.19457" lon="0.75456">
        <ele>142.7</ele>
        <time>2017-10-12T07:57:51.000Z</time>
      </trkpt>
      <trkpt lat="44.19465" lon="0.75452">
        <ele>141.8</ele>
        <time>2017-10-12T07:57:58.000Z</time>
      </trkpt>
      <trkpt lat="44.19474" lon="0.75448">
        <ele>140.8</ele>
        <time>2017-10-12T07:58:06.000Z</time>
      </trkpt>
      <trkpt lat="44.19483" lon="0.75443">
        <ele>139.7</ele>
        <time>2017-10-12T07:58:14.000Z</time>
      </trkpt>
      <trkpt lat="44.1949" lon="0.7544">
        <ele>138.9</ele>
        <time>2017-10-12T07:58:23.000Z</time>
      </trkpt>
      <trkpt lat="44.19562" lon="0.75398">
        <ele>142.4</ele>
        <time>2017-10-12T08:00:46.000Z</time>
      </trkpt>
      <trkpt lat="44.19567" lon="0.75397">
        <ele>142.9</ele>
        <time>2017-10-12T08:00:54.000Z</time>
      </trkpt>
      <trkpt lat="44.19647" lon="0.75375">
        <ele>148.2</ele>
        <time>2017-10-12T08:02:34.000Z</time>
      </trkpt>
      <trkpt lat="44.19658" lon="0.75369">
        <ele>148.9</ele>
        <time>2017-10-12T08:02:43.000Z</time>
      </trkpt>
      <trkpt lat="44.19668" lon="0.75367">
        <ele>149.6</ele>
        <time>2017-10-12T08:02:51.000Z</time>
      </trkpt>
      <trkpt lat="44.19679" lon="0.75362">
        <ele>149.6</ele>
        <time>2017-10-12T08:02:59.000Z</time>
      </trkpt>
      <trkpt lat="44.19685" lon="0.75354">
        <ele>149.6</ele>
        <time>2017-10-12T08:03:07.000Z</time>
      </trkpt>
      <trkpt lat="44.19695" lon="0.7535">
        <ele>149.6</ele>
        <time>2017-10-12T08:03:15.000Z</time>
      </trkpt>
      <trkpt lat="44.19706" lon="0.75348">
        <ele>149.5</ele>
        <time>2017-10-12T08:03:23.000Z</time>
      </trkpt>
      <trkpt lat="44.19715" lon="0.75343">
        <ele>149.4</ele>
        <time>2017-10-12T08:03:31.000Z</time>
      </trkpt>
      <trkpt lat="44.19722" lon="0.75336">
        <ele>149.3</ele>
        <time>2017-10-12T08:03:39.000Z</time>
      </trkpt>
      <trkpt lat="44.1973" lon="0.75326">
        <ele>148.7</ele>
        <time>2017-10-12T08:03:48.000Z</time>
      </trkpt>
      <trkpt lat="44.19739" lon="0.7532">
        <ele>148.2</ele>
        <time>2017-10-12T08:03:57.000Z</time>
      </trkpt>
      <trkpt lat="44.19746" lon="0.75311">
        <ele>147.5</ele>
        <time>2017-10-12T08:04:05.000Z</time>
      </trkpt>
      <trkpt lat="44.19756" lon="0.75306">
        <ele>147.4</ele>
        <time>2017-10-12T08:04:13.000Z</time>
      </trkpt>
      <trkpt lat="44.19763" lon="0.75299">
        <ele>147.5</ele>
        <time>2017-10-12T08:04:21.000Z</time>
      </trkpt>
      <trkpt lat="44.19772" lon="0.75293">
        <ele>147.8</ele>
        <time>2017-10-12T08:04:29.000Z</time>
      </trkpt>
      <trkpt lat="44.19779" lon="0.75284">
        <ele>147.8</ele>
        <time>2017-10-12T08:04:37.000Z</time>
      </trkpt>
      <trkpt lat="44.19788" lon="0.75278">
        <ele>148.2</ele>
        <time>2017-10-12T08:04:45.000Z</time>
      </trkpt>
      <trkpt lat="44.19797" lon="0.75274">
        <ele>148.8</ele>
        <time>2017-10-12T08:04:53.000Z</time>
      </trkpt>
      <trkpt lat="44.19809" lon="0.7527">
        <ele>149.6</ele>
        <time>2017-10-12T08:05:01.000Z</time>
      </trkpt>
      <trkpt lat="44.19818" lon="0.75267">
        <ele>150.2</ele>
        <time>2017-10-12T08:05:09.000Z</time>
      </trkpt>
      <trkpt lat="44.19825" lon="0.75266">
        <ele>150.8</ele>
        <time>2017-10-12T08:05:17.000Z</time>
      </trkpt>
      <trkpt lat="44.19852" lon="0.75252">
        <ele>151.7</ele>
        <time>2017-10-12T08:05:51.000Z</time>
      </trkpt>
      <trkpt lat="44.19862" lon="0.75249">
        <ele>151.9</ele>
        <time>2017-10-12T08:06:00.000Z</time>
      </trkpt>
      <trkpt lat="44.19871" lon="0.75245">
        <ele>152</ele>
        <time>2017-10-12T08:06:08.000Z</time>
      </trkpt>
      <trkpt lat="44.19877" lon="0.75241">
        <ele>152</ele>
        <time>2017-10-12T08:06:18.000Z</time>
      </trkpt>
      <trkpt lat="44.19883" lon="0.75239">
        <ele>152.1</ele>
        <time>2017-10-12T08:06:26.000Z</time>
      </trkpt>
      <trkpt lat="44.19892" lon="0.75236">
        <ele>152.4</ele>
        <time>2017-10-12T08:06:34.000Z</time>
      </trkpt>
      <trkpt lat="44.19901" lon="0.75235">
        <ele>152.7</ele>
        <time>2017-10-12T08:06:42.000Z</time>
      </trkpt>
      <trkpt lat="44.19911" lon="0.75232">
        <ele>153.1</ele>
        <time>2017-10-12T08:06:50.000Z</time>
      </trkpt>
      <trkpt lat="44.19921" lon="0.75228">
        <ele>153.3</ele>
        <time>2017-10-12T08:06:58.000Z</time>
      </trkpt>
      <trkpt lat="44.1992" lon="0.75221">
        <ele>153</ele>
        <time>2017-10-12T08:07:08.000Z</time>
      </trkpt>
      <trkpt lat="44.1992" lon="0.75217">
        <ele>152.9</ele>
        <time>2017-10-12T08:07:14.000Z</time>
      </trkpt>
      <trkpt lat="44.1994" lon="0.75219">
        <ele>153.4</ele>
        <time>2017-10-12T08:07:49.000Z</time>
      </trkpt>
      <trkpt lat="44.19949" lon="0.75214">
        <ele>153.4</ele>
        <time>2017-10-12T08:07:59.000Z</time>
      </trkpt>
      <trkpt lat="44.19958" lon="0.75209">
        <ele>153.5</ele>
        <time>2017-10-12T08:08:09.000Z</time>
      </trkpt>
      <trkpt lat="44.19958" lon="0.75208">
        <ele>153.5</ele>
        <time>2017-10-12T08:08:12.000Z</time>
      </trkpt>
      <trkpt lat="44.19985" lon="0.75188">
        <ele>153.8</ele>
        <time>2017-10-12T08:08:51.000Z</time>
      </trkpt>
      <trkpt lat="44.19993" lon="0.7518">
        <ele>153.9</ele>
        <time>2017-10-12T08:08:59.000Z</time>
      </trkpt>
      <trkpt lat="44.2" lon="0.7517">
        <ele>154</ele>
        <time>2017-10-12T08:09:07.000Z</time>
      </trkpt>
      <trkpt lat="44.20007" lon="0.75159">
        <ele>154.4</ele>
        <time>2017-10-12T08:09:15.000Z</time>
      </trkpt>
      <trkpt lat="44.20015" lon="0.75149">
        <ele>154.9</ele>
        <time>2017-10-12T08:09:23.000Z</time>
      </trkpt>
      <trkpt lat="44.20023" lon="0.7514">
        <ele>155.4</ele>
        <time>2017-10-12T08:09:31.000Z</time>
      </trkpt>
      <trkpt lat="44.20028" lon="0.75126">
        <ele>155.7</ele>
        <time>2017-10-12T08:09:39.000Z</time>
      </trkpt>
      <trkpt lat="44.20033" lon="0.75116">
        <ele>156</ele>
        <time>2017-10-12T08:09:46.000Z</time>
      </trkpt>
      <trkpt lat="44.20039" lon="0.75107">
        <ele>156.4</ele>
        <time>2017-10-12T08:09:53.000Z</time>
      </trkpt>
      <trkpt lat="44.20046" lon="0.75097">
        <ele>156.9</ele>
        <time>2017-10-12T08:10:00.000Z</time>
      </trkpt>
      <trkpt lat="44.20053" lon="0.75086">
        <ele>157.5</ele>
        <time>2017-10-12T08:10:07.000Z</time>
      </trkpt>
      <trkpt lat="44.20058" lon="0.75075">
        <ele>157.9</ele>
        <time>2017-10-12T08:10:14.000Z</time>
      </trkpt>
      <trkpt lat="44.20065" lon="0.75066">
        <ele>158.4</ele>
        <time>2017-10-12T08:10:21.000Z</time>
      </trkpt>
      <trkpt lat="44.20071" lon="0.75056">
        <ele>158.9</ele>
        <time>2017-10-12T08:10:28.000Z</time>
      </trkpt>
      <trkpt lat="44.20071" lon="0.75053">
        <ele>158.9</ele>
        <time>2017-10-12T08:10:33.000Z</time>
      </trkpt>
      <trkpt lat="44.20079" lon="0.75035">
        <ele>159.6</ele>
        <time>2017-10-12T08:10:57.000Z</time>
      </trkpt>
      <trkpt lat="44.20088" lon="0.75025">
        <ele>159.9</ele>
        <time>2017-10-12T08:11:06.000Z</time>
      </trkpt>
      <trkpt lat="44.20096" lon="0.75016">
        <ele>159.8</ele>
        <time>2017-10-12T08:11:14.000Z</time>
      </trkpt>
      <trkpt lat="44.20102" lon="0.75009">
        <ele>159.6</ele>
        <time>2017-10-12T08:11:21.000Z</time>
      </trkpt>
      <trkpt lat="44.20109" lon="0.74999">
        <ele>159.4</ele>
        <time>2017-10-12T08:11:28.000Z</time>
      </trkpt>
      <trkpt lat="44.20113" lon="0.74986">
        <ele>159</ele>
        <time>2017-10-12T08:11:35.000Z</time>
      </trkpt>
      <trkpt lat="44.20119" lon="0.74974">
        <ele>158.6</ele>
        <time>2017-10-12T08:11:43.000Z</time>
      </trkpt>
      <trkpt lat="44.20126" lon="0.74964">
        <ele>158.3</ele>
        <time>2017-10-12T08:11:51.000Z</time>
      </trkpt>
      <trkpt lat="44.20132" lon="0.74953">
        <ele>158</ele>
        <time>2017-10-12T08:11:59.000Z</time>
      </trkpt>
      <trkpt lat="44.20138" lon="0.74942">
        <ele>157.8</ele>
        <time>2017-10-12T08:12:06.000Z</time>
      </trkpt>
      <trkpt lat="44.20145" lon="0.74933">
        <ele>157.5</ele>
        <time>2017-10-12T08:12:14.000Z</time>
      </trkpt>
      <trkpt lat="44.20151" lon="0.74923">
        <ele>157.3</ele>
        <time>2017-10-12T08:12:21.000Z</time>
      </trkpt>
      <trkpt lat="44.20155" lon="0.7491">
        <ele>157.1</ele>
        <time>2017-10-12T08:12:28.000Z</time>
      </trkpt>
      <trkpt lat="44.20159" lon="0.74897">
        <ele>157</ele>
        <time>2017-10-12T08:12:36.000Z</time>
      </trkpt>
      <trkpt lat="44.20161" lon="0.74883">
        <ele>157</ele>
        <time>2017-10-12T08:12:47.000Z</time>
      </trkpt>
      <trkpt lat="44.2016" lon="0.74872">
        <ele>157</ele>
        <time>2017-10-12T08:12:58.000Z</time>
      </trkpt>
      <trkpt lat="44.20154" lon="0.74852">
        <ele>156.9</ele>
        <time>2017-10-12T08:13:23.000Z</time>
      </trkpt>
      <trkpt lat="44.20148" lon="0.74842">
        <ele>156.8</ele>
        <time>2017-10-12T08:13:32.000Z</time>
      </trkpt>
      <trkpt lat="44.20142" lon="0.74831">
        <ele>156.7</ele>
        <time>2017-10-12T08:13:40.000Z</time>
      </trkpt>
      <trkpt lat="44.20135" lon="0.74821">
        <ele>156.5</ele>
        <time>2017-10-12T08:13:48.000Z</time>
      </trkpt>
      <trkpt lat="44.20127" lon="0.74813">
        <ele>156.3</ele>
        <time>2017-10-12T08:13:56.000Z</time>
      </trkpt>
      <trkpt lat="44.2012" lon="0.74803">
        <ele>156</ele>
        <time>2017-10-12T08:14:04.000Z</time>
      </trkpt>
      <trkpt lat="44.20113" lon="0.74794">
        <ele>155.8</ele>
        <time>2017-10-12T08:14:12.000Z</time>
      </trkpt>
      <trkpt lat="44.20106" lon="0.74785">
        <ele>155.4</ele>
        <time>2017-10-12T08:14:20.000Z</time>
      </trkpt>
      <trkpt lat="44.20099" lon="0.74777">
        <ele>155.1</ele>
        <time>2017-10-12T08:14:27.000Z</time>
      </trkpt>
      <trkpt lat="44.20093" lon="0.74767">
        <ele>154.7</ele>
        <time>2017-10-12T08:14:35.000Z</time>
      </trkpt>
      <trkpt lat="44.20087" lon="0.74757">
        <ele>154.3</ele>
        <time>2017-10-12T08:14:44.000Z</time>
      </trkpt>
      <trkpt lat="44.2008" lon="0.74748">
        <ele>154</ele>
        <time>2017-10-12T08:14:51.000Z</time>
      </trkpt>
      <trkpt lat="44.20072" lon="0.74741">
        <ele>153.9</ele>
        <time>2017-10-12T08:15:00.000Z</time>
      </trkpt>
      <trkpt lat="44.20065" lon="0.7473">
        <ele>153.7</ele>
        <time>2017-10-12T08:15:08.000Z</time>
      </trkpt>
      <trkpt lat="44.20058" lon="0.74719">
        <ele>153.5</ele>
        <time>2017-10-12T08:15:16.000Z</time>
      </trkpt>
      <trkpt lat="44.2005" lon="0.74712">
        <ele>153.4</ele>
        <time>2017-10-12T08:15:24.000Z</time>
      </trkpt>
      <trkpt lat="44.20043" lon="0.74706">
        <ele>153.2</ele>
        <time>2017-10-12T08:15:32.000Z</time>
      </trkpt>
      <trkpt lat="44.20036" lon="0.74698">
        <ele>153</ele>
        <time>2017-10-12T08:15:40.000Z</time>
      </trkpt>
      <trkpt lat="44.20029" lon="0.74689">
        <ele>152.8</ele>
        <time>2017-10-12T08:15:48.000Z</time>
      </trkpt>
      <trkpt lat="44.2002" lon="0.7468">
        <ele>152.5</ele>
        <time>2017-10-12T08:15:56.000Z</time>
      </trkpt>
      <trkpt lat="44.20011" lon="0.74671">
        <ele>152.2</ele>
        <time>2017-10-12T08:16:04.000Z</time>
      </trkpt>
      <trkpt lat="44.20004" lon="0.74663">
        <ele>152</ele>
        <time>2017-10-12T08:16:12.000Z</time>
      </trkpt>
      <trkpt lat="44.19997" lon="0.74655">
        <ele>151.4</ele>
        <time>2017-10-12T08:16:20.000Z</time>
      </trkpt>
      <trkpt lat="44.19991" lon="0.74644">
        <ele>150.7</ele>
        <time>2017-10-12T08:16:28.000Z</time>
      </trkpt>
      <trkpt lat="44.19984" lon="0.74633">
        <ele>150.2</ele>
        <time>2017-10-12T08:16:36.000Z</time>
      </trkpt>
      <trkpt lat="44.19978" lon="0.74623">
        <ele>149.8</ele>
        <time>2017-10-12T08:16:44.000Z</time>
      </trkpt>
      <trkpt lat="44.19971" lon="0.74613">
        <ele>149.6</ele>
        <time>2017-10-12T08:16:53.000Z</time>
      </trkpt>
      <trkpt lat="44.19963" lon="0.74605">
        <ele>149.5</ele>
        <time>2017-10-12T08:17:01.000Z</time>
      </trkpt>
      <trkpt lat="44.19958" lon="0.74593">
        <ele>149.7</ele>
        <time>2017-10-12T08:17:08.000Z</time>
      </trkpt>
      <trkpt lat="44.19956" lon="0.74581">
        <ele>150.1</ele>
        <time>2017-10-12T08:17:15.000Z</time>
      </trkpt>
      <trkpt lat="44.19952" lon="0.74568">
        <ele>150.7</ele>
        <time>2017-10-12T08:17:23.000Z</time>
      </trkpt>
      <trkpt lat="44.19949" lon="0.74556">
        <ele>151.4</ele>
        <time>2017-10-12T08:17:31.000Z</time>
      </trkpt>
      <trkpt lat="44.19944" lon="0.74545">
        <ele>152</ele>
        <time>2017-10-12T08:17:39.000Z</time>
      </trkpt>
      <trkpt lat="44.19938" lon="0.74536">
        <ele>152.7</ele>
        <time>2017-10-12T08:17:47.000Z</time>
      </trkpt>
      <trkpt lat="44.19931" lon="0.74527">
        <ele>153.5</ele>
        <time>2017-10-12T08:17:55.000Z</time>
      </trkpt>
      <trkpt lat="44.19924" lon="0.74518">
        <ele>154.4</ele>
        <time>2017-10-12T08:18:03.000Z</time>
      </trkpt>
      <trkpt lat="44.19918" lon="0.74508">
        <ele>155.3</ele>
        <time>2017-10-12T08:18:11.000Z</time>
      </trkpt>
      <trkpt lat="44.19912" lon="0.74498">
        <ele>156.5</ele>
        <time>2017-10-12T08:18:19.000Z</time>
      </trkpt>
      <trkpt lat="44.19905" lon="0.74487">
        <ele>157.7</ele>
        <time>2017-10-12T08:18:27.000Z</time>
      </trkpt>
      <trkpt lat="44.199" lon="0.74477">
        <ele>158.8</ele>
        <time>2017-10-12T08:18:34.000Z</time>
      </trkpt>
      <trkpt lat="44.19896" lon="0.74466">
        <ele>159.9</ele>
        <time>2017-10-12T08:18:41.000Z</time>
      </trkpt>
      <trkpt lat="44.19892" lon="0.74455">
        <ele>160.9</ele>
        <time>2017-10-12T08:18:48.000Z</time>
      </trkpt>
      <trkpt lat="44.19889" lon="0.74441">
        <ele>162</ele>
        <time>2017-10-12T08:18:56.000Z</time>
      </trkpt>
      <trkpt lat="44.19888" lon="0.74427">
        <ele>163.2</ele>
        <time>2017-10-12T08:19:04.000Z</time>
      </trkpt>
      <trkpt lat="44.19887" lon="0.74413">
        <ele>164</ele>
        <time>2017-10-12T08:19:12.000Z</time>
      </trkpt>
      <trkpt lat="44.19888" lon="0.74399">
        <ele>163.8</ele>
        <time>2017-10-12T08:19:22.000Z</time>
      </trkpt>
      <trkpt lat="44.19889" lon="0.74385">
        <ele>163.6</ele>
        <time>2017-10-12T08:19:31.000Z</time>
      </trkpt>
      <trkpt lat="44.19889" lon="0.74368">
        <ele>163.4</ele>
        <time>2017-10-12T08:19:41.000Z</time>
      </trkpt>
      <trkpt lat="44.19889" lon="0.74355">
        <ele>163.3</ele>
        <time>2017-10-12T08:19:50.000Z</time>
      </trkpt>
      <trkpt lat="44.19873" lon="0.74309">
        <ele>162.1</ele>
        <time>2017-10-12T08:20:22.000Z</time>
      </trkpt>
      <trkpt lat="44.19868" lon="0.74297">
        <ele>161.7</ele>
        <time>2017-10-12T08:20:31.000Z</time>
      </trkpt>
      <trkpt lat="44.1986" lon="0.74285">
        <ele>161.2</ele>
        <time>2017-10-12T08:20:40.000Z</time>
      </trkpt>
      <trkpt lat="44.19854" lon="0.74274">
        <ele>160.7</ele>
        <time>2017-10-12T08:20:49.000Z</time>
      </trkpt>
      <trkpt lat="44.19847" lon="0.74263">
        <ele>160.1</ele>
        <time>2017-10-12T08:20:58.000Z</time>
      </trkpt>
      <trkpt lat="44.19841" lon="0.74249">
        <ele>159.4</ele>
        <time>2017-10-12T08:21:07.000Z</time>
      </trkpt>
      <trkpt lat="44.19835" lon="0.74236">
        <ele>159.1</ele>
        <time>2017-10-12T08:21:16.000Z</time>
      </trkpt>
      <trkpt lat="44.19829" lon="0.74226">
        <ele>158.8</ele>
        <time>2017-10-12T08:21:24.000Z</time>
      </trkpt>
      <trkpt lat="44.19823" lon="0.74215">
        <ele>158.6</ele>
        <time>2017-10-12T08:21:32.000Z</time>
      </trkpt>
      <trkpt lat="44.19816" lon="0.74204">
        <ele>158.4</ele>
        <time>2017-10-12T08:21:40.000Z</time>
      </trkpt>
      <trkpt lat="44.1981" lon="0.74193">
        <ele>158.2</ele>
        <time>2017-10-12T08:21:48.000Z</time>
      </trkpt>
      <trkpt lat="44.19804" lon="0.74184">
        <ele>158</ele>
        <time>2017-10-12T08:21:56.000Z</time>
      </trkpt>
      <trkpt lat="44.19796" lon="0.74177">
        <ele>157.7</ele>
        <time>2017-10-12T08:22:04.000Z</time>
      </trkpt>
      <trkpt lat="44.19789" lon="0.74169">
        <ele>157.4</ele>
        <time>2017-10-12T08:22:12.000Z</time>
      </trkpt>
      <trkpt lat="44.19782" lon="0.74159">
        <ele>157.1</ele>
        <time>2017-10-12T08:22:20.000Z</time>
      </trkpt>
      <trkpt lat="44.19775" lon="0.74149">
        <ele>156.8</ele>
        <time>2017-10-12T08:22:28.000Z</time>
      </trkpt>
      <trkpt lat="44.19768" lon="0.74139">
        <ele>156.5</ele>
        <time>2017-10-12T08:22:36.000Z</time>
      </trkpt>
      <trkpt lat="44.19761" lon="0.74129">
        <ele>156.3</ele>
        <time>2017-10-12T08:22:44.000Z</time>
      </trkpt>
      <trkpt lat="44.19754" lon="0.74122">
        <ele>156.1</ele>
        <time>2017-10-12T08:22:53.000Z</time>
      </trkpt>
      <trkpt lat="44.19747" lon="0.74112">
        <ele>155.6</ele>
        <time>2017-10-12T08:23:02.000Z</time>
      </trkpt>
      <trkpt lat="44.19746" lon="0.74106">
        <ele>155.5</ele>
        <time>2017-10-12T08:23:10.000Z</time>
      </trkpt>
      <trkpt lat="44.19736" lon="0.74092">
        <ele>154.4</ele>
        <time>2017-10-12T08:23:38.000Z</time>
      </trkpt>
      <trkpt lat="44.1973" lon="0.74079">
        <ele>153.9</ele>
        <time>2017-10-12T08:23:47.000Z</time>
      </trkpt>
      <trkpt lat="44.19726" lon="0.74066">
        <ele>153.8</ele>
        <time>2017-10-12T08:23:55.000Z</time>
      </trkpt>
      <trkpt lat="44.19722" lon="0.74054">
        <ele>153.7</ele>
        <time>2017-10-12T08:24:03.000Z</time>
      </trkpt>
      <trkpt lat="44.19717" lon="0.74043">
        <ele>153.6</ele>
        <time>2017-10-12T08:24:11.000Z</time>
      </trkpt>
      <trkpt lat="44.19713" lon="0.74032">
        <ele>153.7</ele>
        <time>2017-10-12T08:24:19.000Z</time>
      </trkpt>
      <trkpt lat="44.19709" lon="0.7402">
        <ele>153.8</ele>
        <time>2017-10-12T08:24:28.000Z</time>
      </trkpt>
      <trkpt lat="44.19706" lon="0.74009">
        <ele>154.1</ele>
        <time>2017-10-12T08:24:37.000Z</time>
      </trkpt>
      <trkpt lat="44.19702" lon="0.74">
        <ele>154.3</ele>
        <time>2017-10-12T08:24:47.000Z</time>
      </trkpt>
      <trkpt lat="44.19691" lon="0.73971">
        <ele>154.2</ele>
        <time>2017-10-12T08:25:12.000Z</time>
      </trkpt>
      <trkpt lat="44.19687" lon="0.73959">
        <ele>154.2</ele>
        <time>2017-10-12T08:25:20.000Z</time>
      </trkpt>
      <trkpt lat="44.19683" lon="0.73946">
        <ele>154.4</ele>
        <time>2017-10-12T08:25:30.000Z</time>
      </trkpt>
      <trkpt lat="44.19679" lon="0.73934">
        <ele>154.6</ele>
        <time>2017-10-12T08:25:38.000Z</time>
      </trkpt>
      <trkpt lat="44.19674" lon="0.73923">
        <ele>154.8</ele>
        <time>2017-10-12T08:25:46.000Z</time>
      </trkpt>
      <trkpt lat="44.19669" lon="0.7391">
        <ele>155</ele>
        <time>2017-10-12T08:25:54.000Z</time>
      </trkpt>
      <trkpt lat="44.19665" lon="0.73897">
        <ele>155</ele>
        <time>2017-10-12T08:26:02.000Z</time>
      </trkpt>
      <trkpt lat="44.1966" lon="0.73885">
        <ele>155.1</ele>
        <time>2017-10-12T08:26:10.000Z</time>
      </trkpt>
      <trkpt lat="44.19655" lon="0.73873">
        <ele>155.3</ele>
        <time>2017-10-12T08:26:18.000Z</time>
      </trkpt>
      <trkpt lat="44.19652" lon="0.73861">
        <ele>155.4</ele>
        <time>2017-10-12T08:26:25.000Z</time>
      </trkpt>
      <trkpt lat="44.19647" lon="0.73849">
        <ele>155.6</ele>
        <time>2017-10-12T08:26:33.000Z</time>
      </trkpt>
      <trkpt lat="44.19643" lon="0.73837">
        <ele>155.8</ele>
        <time>2017-10-12T08:26:41.000Z</time>
      </trkpt>
      <trkpt lat="44.1964" lon="0.73824">
        <ele>156.2</ele>
        <time>2017-10-12T08:26:49.000Z</time>
      </trkpt>
      <trkpt lat="44.19635" lon="0.73811">
        <ele>156.6</ele>
        <time>2017-10-12T08:26:56.000Z</time>
      </trkpt>
      <trkpt lat="44.1963" lon="0.73799">
        <ele>157.1</ele>
        <time>2017-10-12T08:27:04.000Z</time>
      </trkpt>
      <trkpt lat="44.19626" lon="0.73787">
        <ele>157.6</ele>
        <time>2017-10-12T08:27:12.000Z</time>
      </trkpt>
      <trkpt lat="44.19621" lon="0.73776">
        <ele>158.1</ele>
        <time>2017-10-12T08:27:19.000Z</time>
      </trkpt>
      <trkpt lat="44.19616" lon="0.73766">
        <ele>158.6</ele>
        <time>2017-10-12T08:27:28.000Z</time>
      </trkpt>
      <trkpt lat="44.19612" lon="0.73754">
        <ele>159.2</ele>
        <time>2017-10-12T08:27:36.000Z</time>
      </trkpt>
      <trkpt lat="44.19608" lon="0.73743">
        <ele>160.1</ele>
        <time>2017-10-12T08:27:43.000Z</time>
      </trkpt>
      <trkpt lat="44.19604" lon="0.73732">
        <ele>161.3</ele>
        <time>2017-10-12T08:27:52.000Z</time>
      </trkpt>
      <trkpt lat="44.196" lon="0.7372">
        <ele>162.7</ele>
        <time>2017-10-12T08:28:00.000Z</time>
      </trkpt>
      <trkpt lat="44.19595" lon="0.73707">
        <ele>164.3</ele>
        <time>2017-10-12T08:28:08.000Z</time>
      </trkpt>
      <trkpt lat="44.19591" lon="0.73695">
        <ele>166</ele>
        <time>2017-10-12T08:28:17.000Z</time>
      </trkpt>
      <trkpt lat="44.19586" lon="0.73684">
        <ele>167.8</ele>
        <time>2017-10-12T08:28:25.000Z</time>
      </trkpt>
      <trkpt lat="44.19581" lon="0.73673">
        <ele>169.6</ele>
        <time>2017-10-12T08:28:32.000Z</time>
      </trkpt>
      <trkpt lat="44.19576" lon="0.73662">
        <ele>171.1</ele>
        <time>2017-10-12T08:28:39.000Z</time>
      </trkpt>
      <trkpt lat="44.1957" lon="0.73652">
        <ele>172.3</ele>
        <time>2017-10-12T08:28:47.000Z</time>
      </trkpt>
      <trkpt lat="44.19564" lon="0.73642">
        <ele>173.4</ele>
        <time>2017-10-12T08:28:55.000Z</time>
      </trkpt>
      <trkpt lat="44.19559" lon="0.73632">
        <ele>174.3</ele>
        <time>2017-10-12T08:29:02.000Z</time>
      </trkpt>
      <trkpt lat="44.19551" lon="0.73622">
        <ele>175.3</ele>
        <time>2017-10-12T08:29:10.000Z</time>
      </trkpt>
      <trkpt lat="44.19543" lon="0.73614">
        <ele>176.1</ele>
        <time>2017-10-12T08:29:18.000Z</time>
      </trkpt>
      <trkpt lat="44.19537" lon="0.73605">
        <ele>176.8</ele>
        <time>2017-10-12T08:29:26.000Z</time>
      </trkpt>
      <trkpt lat="44.19533" lon="0.73602">
        <ele>177.1</ele>
        <time>2017-10-12T08:29:32.000Z</time>
      </trkpt>
      <trkpt lat="44.19343" lon="0.73858">
        <ele>175.3</ele>
        <time>2017-10-12T08:38:26.000Z</time>
      </trkpt>
      <trkpt lat="44.19339" lon="0.73868">
        <ele>175.5</ele>
        <time>2017-10-12T08:38:35.000Z</time>
      </trkpt>
      <trkpt lat="44.19333" lon="0.73886">
        <ele>175.9</ele>
        <time>2017-10-12T08:38:51.000Z</time>
      </trkpt>
      <trkpt lat="44.19328" lon="0.739">
        <ele>175.6</ele>
        <time>2017-10-12T08:39:02.000Z</time>
      </trkpt>
      <trkpt lat="44.19324" lon="0.73907">
        <ele>175.2</ele>
        <time>2017-10-12T08:39:09.000Z</time>
      </trkpt>
      <trkpt lat="44.19307" lon="0.73971">
        <ele>172.3</ele>
        <time>2017-10-12T08:39:56.000Z</time>
      </trkpt>
      <trkpt lat="44.19305" lon="0.73971">
        <ele>172.2</ele>
        <time>2017-10-12T08:40:00.000Z</time>
      </trkpt>
      <trkpt lat="44.1923" lon="0.74043">
        <ele>163.5</ele>
        <time>2017-10-12T08:41:44.000Z</time>
      </trkpt>
      <trkpt lat="44.19221" lon="0.74044">
        <ele>162.2</ele>
        <time>2017-10-12T08:41:56.000Z</time>
      </trkpt>
      <trkpt lat="44.19117" lon="0.7402">
        <ele>155</ele>
        <time>2017-10-12T08:43:42.000Z</time>
      </trkpt>
      <trkpt lat="44.19114" lon="0.7401">
        <ele>155.5</ele>
        <time>2017-10-12T08:43:51.000Z</time>
      </trkpt>
      <trkpt lat="44.19111" lon="0.73996">
        <ele>156</ele>
        <time>2017-10-12T08:44:00.000Z</time>
      </trkpt>
      <trkpt lat="44.19106" lon="0.73985">
        <ele>155.8</ele>
        <time>2017-10-12T08:44:10.000Z</time>
      </trkpt>
      <trkpt lat="44.19098" lon="0.73987">
        <ele>155.5</ele>
        <time>2017-10-12T08:44:20.000Z</time>
      </trkpt>
      <trkpt lat="44.19088" lon="0.73994">
        <ele>155.1</ele>
        <time>2017-10-12T08:44:31.000Z</time>
      </trkpt>
      <trkpt lat="44.19085" lon="0.73995">
        <ele>155.1</ele>
        <time>2017-10-12T08:44:34.000Z</time>
      </trkpt>
      <trkpt lat="44.19054" lon="0.74032">
        <ele>151.3</ele>
        <time>2017-10-12T08:45:09.000Z</time>
      </trkpt>
      <trkpt lat="44.19046" lon="0.7404">
        <ele>150.1</ele>
        <time>2017-10-12T08:45:19.000Z</time>
      </trkpt>
      <trkpt lat="44.19032" lon="0.74056">
        <ele>148</ele>
        <time>2017-10-12T08:45:42.000Z</time>
      </trkpt>
      <trkpt lat="44.19023" lon="0.74063">
        <ele>146.7</ele>
        <time>2017-10-12T08:45:52.000Z</time>
      </trkpt>
      <trkpt lat="44.19012" lon="0.7406">
        <ele>146.1</ele>
        <time>2017-10-12T08:46:02.000Z</time>
      </trkpt>
      <trkpt lat="44.18998" lon="0.74062">
        <ele>144.7</ele>
        <time>2017-10-12T08:46:11.000Z</time>
      </trkpt>
      <trkpt lat="44.18989" lon="0.74061">
        <ele>143</ele>
        <time>2017-10-12T08:46:20.000Z</time>
      </trkpt>
      <trkpt lat="44.1898" lon="0.74062">
        <ele>141.2</ele>
        <time>2017-10-12T08:46:29.000Z</time>
      </trkpt>
      <trkpt lat="44.18969" lon="0.74065">
        <ele>138.9</ele>
        <time>2017-10-12T08:46:39.000Z</time>
      </trkpt>
      <trkpt lat="44.18958" lon="0.74067">
        <ele>136.5</ele>
        <time>2017-10-12T08:46:49.000Z</time>
      </trkpt>
      <trkpt lat="44.18948" lon="0.74069">
        <ele>134.1</ele>
        <time>2017-10-12T08:46:59.000Z</time>
      </trkpt>
      <trkpt lat="44.18937" lon="0.7407">
        <ele>131.9</ele>
        <time>2017-10-12T08:47:10.000Z</time>
      </trkpt>
      <trkpt lat="44.18923" lon="0.74064">
        <ele>130.5</ele>
        <time>2017-10-12T08:47:20.000Z</time>
      </trkpt>
      <trkpt lat="44.18919" lon="0.7406">
        <ele>130.4</ele>
        <time>2017-10-12T08:47:26.000Z</time>
      </trkpt>
      <trkpt lat="44.18871" lon="0.74">
        <ele>137</ele>
        <time>2017-10-12T08:48:28.000Z</time>
      </trkpt>
      <trkpt lat="44.18869" lon="0.73997">
        <ele>136.8</ele>
        <time>2017-10-12T08:48:31.000Z</time>
      </trkpt>
      <trkpt lat="44.18885" lon="0.7397">
        <ele>140.2</ele>
        <time>2017-10-12T08:48:51.000Z</time>
      </trkpt>
      <trkpt lat="44.18893" lon="0.73961">
        <ele>142.1</ele>
        <time>2017-10-12T08:48:59.000Z</time>
      </trkpt>
      <trkpt lat="44.189" lon="0.73951">
        <ele>144.2</ele>
        <time>2017-10-12T08:49:07.000Z</time>
      </trkpt>
      <trkpt lat="44.1891" lon="0.73942">
        <ele>147.1</ele>
        <time>2017-10-12T08:49:16.000Z</time>
      </trkpt>
      <trkpt lat="44.18919" lon="0.73933">
        <ele>149.7</ele>
        <time>2017-10-12T08:49:24.000Z</time>
      </trkpt>
      <trkpt lat="44.18926" lon="0.73925">
        <ele>151</ele>
        <time>2017-10-12T08:49:32.000Z</time>
      </trkpt>
      <trkpt lat="44.18933" lon="0.73917">
        <ele>152.4</ele>
        <time>2017-10-12T08:49:40.000Z</time>
      </trkpt>
      <trkpt lat="44.18943" lon="0.73908">
        <ele>151.8</ele>
        <time>2017-10-12T08:49:48.000Z</time>
      </trkpt>
      <trkpt lat="44.18952" lon="0.73904">
        <ele>152.2</ele>
        <time>2017-10-12T08:49:56.000Z</time>
      </trkpt>
      <trkpt lat="44.18959" lon="0.73897">
        <ele>151.8</ele>
        <time>2017-10-12T08:50:04.000Z</time>
      </trkpt>
      <trkpt lat="44.18964" lon="0.73884">
        <ele>150.7</ele>
        <time>2017-10-12T08:50:12.000Z</time>
      </trkpt>
      <trkpt lat="44.18969" lon="0.73874">
        <ele>150.1</ele>
        <time>2017-10-12T08:50:20.000Z</time>
      </trkpt>
      <trkpt lat="44.18976" lon="0.73861">
        <ele>149.6</ele>
        <time>2017-10-12T08:50:29.000Z</time>
      </trkpt>
      <trkpt lat="44.18981" lon="0.73847">
        <ele>148.9</ele>
        <time>2017-10-12T08:50:37.000Z</time>
      </trkpt>
      <trkpt lat="44.18987" lon="0.73837">
        <ele>148.9</ele>
        <time>2017-10-12T08:50:45.000Z</time>
      </trkpt>
      <trkpt lat="44.18995" lon="0.73828">
        <ele>148.4</ele>
        <time>2017-10-12T08:50:52.000Z</time>
      </trkpt>
      <trkpt lat="44.19001" lon="0.7382">
        <ele>147.4</ele>
        <time>2017-10-12T08:51:00.000Z</time>
      </trkpt>
      <trkpt lat="44.19009" lon="0.73817">
        <ele>146.7</ele>
        <time>2017-10-12T08:51:09.000Z</time>
      </trkpt>
      <trkpt lat="44.19015" lon="0.73805">
        <ele>144</ele>
        <time>2017-10-12T08:51:17.000Z</time>
      </trkpt>
      <trkpt lat="44.19023" lon="0.73798">
        <ele>142.6</ele>
        <time>2017-10-12T08:51:25.000Z</time>
      </trkpt>
      <trkpt lat="44.19032" lon="0.73793">
        <ele>142.2</ele>
        <time>2017-10-12T08:51:32.000Z</time>
      </trkpt>
      <trkpt lat="44.19041" lon="0.73789">
        <ele>141.8</ele>
        <time>2017-10-12T08:51:39.000Z</time>
      </trkpt>
      <trkpt lat="44.19048" lon="0.73783">
        <ele>141.2</ele>
        <time>2017-10-12T08:51:45.000Z</time>
      </trkpt>
      <trkpt lat="44.19055" lon="0.73779">
        <ele>141.2</ele>
        <time>2017-10-12T08:51:54.000Z</time>
      </trkpt>
      <trkpt lat="44.19065" lon="0.7377">
        <ele>140.5</ele>
        <time>2017-10-12T08:52:05.000Z</time>
      </trkpt>
      <trkpt lat="44.19072" lon="0.7376">
        <ele>139.8</ele>
        <time>2017-10-12T08:52:15.000Z</time>
      </trkpt>
      <trkpt lat="44.19077" lon="0.73748">
        <ele>138.7</ele>
        <time>2017-10-12T08:52:25.000Z</time>
      </trkpt>
      <trkpt lat="44.19085" lon="0.73733">
        <ele>136.6</ele>
        <time>2017-10-12T08:52:35.000Z</time>
      </trkpt>
      <trkpt lat="44.19092" lon="0.73719">
        <ele>134.7</ele>
        <time>2017-10-12T08:52:45.000Z</time>
      </trkpt>
      <trkpt lat="44.19099" lon="0.73709">
        <ele>133.8</ele>
        <time>2017-10-12T08:52:55.000Z</time>
      </trkpt>
      <trkpt lat="44.1911" lon="0.73698">
        <ele>133.5</ele>
        <time>2017-10-12T08:53:06.000Z</time>
      </trkpt>
      <trkpt lat="44.19118" lon="0.73686">
        <ele>132.9</ele>
        <time>2017-10-12T08:53:15.000Z</time>
      </trkpt>
      <trkpt lat="44.19125" lon="0.73675">
        <ele>132.3</ele>
        <time>2017-10-12T08:53:25.000Z</time>
      </trkpt>
      <trkpt lat="44.19132" lon="0.7366">
        <ele>131.7</ele>
        <time>2017-10-12T08:53:34.000Z</time>
      </trkpt>
      <trkpt lat="44.19138" lon="0.73648">
        <ele>131.5</ele>
        <time>2017-10-12T08:53:42.000Z</time>
      </trkpt>
      <trkpt lat="44.19142" lon="0.73636">
        <ele>131</ele>
        <time>2017-10-12T08:53:50.000Z</time>
      </trkpt>
      <trkpt lat="44.19146" lon="0.73624">
        <ele>130.4</ele>
        <time>2017-10-12T08:53:59.000Z</time>
      </trkpt>
      <trkpt lat="44.19149" lon="0.73611">
        <ele>129.6</ele>
        <time>2017-10-12T08:54:07.000Z</time>
      </trkpt>
      <trkpt lat="44.19154" lon="0.73598">
        <ele>129.1</ele>
        <time>2017-10-12T08:54:17.000Z</time>
      </trkpt>
      <trkpt lat="44.19159" lon="0.73583">
        <ele>128.4</ele>
        <time>2017-10-12T08:54:27.000Z</time>
      </trkpt>
      <trkpt lat="44.19165" lon="0.73567">
        <ele>128.9</ele>
        <time>2017-10-12T08:54:38.000Z</time>
      </trkpt>
      <trkpt lat="44.19172" lon="0.73555">
        <ele>129.9</ele>
        <time>2017-10-12T08:54:47.000Z</time>
      </trkpt>
      <trkpt lat="44.19178" lon="0.73541">
        <ele>130.5</ele>
        <time>2017-10-12T08:54:56.000Z</time>
      </trkpt>
      <trkpt lat="44.19184" lon="0.73526">
        <ele>131.3</ele>
        <time>2017-10-12T08:55:04.000Z</time>
      </trkpt>
      <trkpt lat="44.1919" lon="0.73515">
        <ele>132.2</ele>
        <time>2017-10-12T08:55:12.000Z</time>
      </trkpt>
      <trkpt lat="44.19194" lon="0.73502">
        <ele>132.7</ele>
        <time>2017-10-12T08:55:20.000Z</time>
      </trkpt>
      <trkpt lat="44.19199" lon="0.73491">
        <ele>134.9</ele>
        <time>2017-10-12T08:55:28.000Z</time>
      </trkpt>
      <trkpt lat="44.19205" lon="0.73478">
        <ele>137.3</ele>
        <time>2017-10-12T08:55:36.000Z</time>
      </trkpt>
      <trkpt lat="44.19208" lon="0.73465">
        <ele>139.3</ele>
        <time>2017-10-12T08:55:45.000Z</time>
      </trkpt>
      <trkpt lat="44.19212" lon="0.73455">
        <ele>140.9</ele>
        <time>2017-10-12T08:55:55.000Z</time>
      </trkpt>
      <trkpt lat="44.19215" lon="0.73441">
        <ele>142.7</ele>
        <time>2017-10-12T08:56:03.000Z</time>
      </trkpt>
      <trkpt lat="44.19219" lon="0.73428">
        <ele>144.4</ele>
        <time>2017-10-12T08:56:11.000Z</time>
      </trkpt>
      <trkpt lat="44.19222" lon="0.73415">
        <ele>145.7</ele>
        <time>2017-10-12T08:56:19.000Z</time>
      </trkpt>
      <trkpt lat="44.19226" lon="0.73402">
        <ele>147</ele>
        <time>2017-10-12T08:56:30.000Z</time>
      </trkpt>
      <trkpt lat="44.19228" lon="0.73389">
        <ele>148.1</ele>
        <time>2017-10-12T08:56:38.000Z</time>
      </trkpt>
      <trkpt lat="44.19231" lon="0.73376">
        <ele>149.1</ele>
        <time>2017-10-12T08:56:46.000Z</time>
      </trkpt>
      <trkpt lat="44.19234" lon="0.73363">
        <ele>150</ele>
        <time>2017-10-12T08:56:54.000Z</time>
      </trkpt>
      <trkpt lat="44.19237" lon="0.73351">
        <ele>150.8</ele>
        <time>2017-10-12T08:57:02.000Z</time>
      </trkpt>
      <trkpt lat="44.19239" lon="0.73339">
        <ele>151.5</ele>
        <time>2017-10-12T08:57:10.000Z</time>
      </trkpt>
      <trkpt lat="44.19242" lon="0.73325">
        <ele>152</ele>
        <time>2017-10-12T08:57:18.000Z</time>
      </trkpt>
      <trkpt lat="44.19244" lon="0.73313">
        <ele>152.2</ele>
        <time>2017-10-12T08:57:25.000Z</time>
      </trkpt>
      <trkpt lat="44.19247" lon="0.733">
        <ele>152.4</ele>
        <time>2017-10-12T08:57:33.000Z</time>
      </trkpt>
      <trkpt lat="44.19248" lon="0.73287">
        <ele>152.6</ele>
        <time>2017-10-12T08:57:41.000Z</time>
      </trkpt>
      <trkpt lat="44.1925" lon="0.73286">
        <ele>152.6</ele>
        <time>2017-10-12T08:57:45.000Z</time>
      </trkpt>
      <trkpt lat="44.19253" lon="0.73264">
        <ele>152.8</ele>
        <time>2017-10-12T08:58:11.000Z</time>
      </trkpt>
      <trkpt lat="44.19255" lon="0.73252">
        <ele>152.9</ele>
        <time>2017-10-12T08:58:19.000Z</time>
      </trkpt>
      <trkpt lat="44.19258" lon="0.7324">
        <ele>153.1</ele>
        <time>2017-10-12T08:58:27.000Z</time>
      </trkpt>
      <trkpt lat="44.1926" lon="0.7323">
        <ele>153.3</ele>
        <time>2017-10-12T08:58:36.000Z</time>
      </trkpt>
      <trkpt lat="44.19247" lon="0.73201">
        <ele>154.3</ele>
        <time>2017-10-12T08:59:24.000Z</time>
      </trkpt>
      <trkpt lat="44.19245" lon="0.73197">
        <ele>154.4</ele>
        <time>2017-10-12T08:59:30.000Z</time>
      </trkpt>
      <trkpt lat="44.19237" lon="0.73185">
        <ele>155</ele>
        <time>2017-10-12T08:59:42.000Z</time>
      </trkpt>
      <trkpt lat="44.19231" lon="0.73176">
        <ele>155.5</ele>
        <time>2017-10-12T08:59:50.000Z</time>
      </trkpt>
      <trkpt lat="44.19225" lon="0.73165">
        <ele>155.9</ele>
        <time>2017-10-12T08:59:58.000Z</time>
      </trkpt>
      <trkpt lat="44.19218" lon="0.73155">
        <ele>156.1</ele>
        <time>2017-10-12T09:00:06.000Z</time>
      </trkpt>
      <trkpt lat="44.19212" lon="0.73147">
        <ele>156.2</ele>
        <time>2017-10-12T09:00:14.000Z</time>
      </trkpt>
      <trkpt lat="44.19204" lon="0.7314">
        <ele>156.5</ele>
        <time>2017-10-12T09:00:23.000Z</time>
      </trkpt>
      <trkpt lat="44.19195" lon="0.73133">
        <ele>156.9</ele>
        <time>2017-10-12T09:00:32.000Z</time>
      </trkpt>
      <trkpt lat="44.19187" lon="0.73127">
        <ele>157.1</ele>
        <time>2017-10-12T09:00:40.000Z</time>
      </trkpt>
      <trkpt lat="44.19178" lon="0.73118">
        <ele>157.5</ele>
        <time>2017-10-12T09:00:49.000Z</time>
      </trkpt>
      <trkpt lat="44.1917" lon="0.73111">
        <ele>157.8</ele>
        <time>2017-10-12T09:00:58.000Z</time>
      </trkpt>
      <trkpt lat="44.19162" lon="0.73104">
        <ele>158</ele>
        <time>2017-10-12T09:01:06.000Z</time>
      </trkpt>
      <trkpt lat="44.19153" lon="0.73097">
        <ele>158</ele>
        <time>2017-10-12T09:01:15.000Z</time>
      </trkpt>
      <trkpt lat="44.19144" lon="0.7309">
        <ele>158</ele>
        <time>2017-10-12T09:01:23.000Z</time>
      </trkpt>
      <trkpt lat="44.19136" lon="0.73084">
        <ele>158</ele>
        <time>2017-10-12T09:01:31.000Z</time>
      </trkpt>
      <trkpt lat="44.19127" lon="0.73078">
        <ele>157.9</ele>
        <time>2017-10-12T09:01:39.000Z</time>
      </trkpt>
      <trkpt lat="44.1912" lon="0.73072">
        <ele>157.7</ele>
        <time>2017-10-12T09:01:47.000Z</time>
      </trkpt>
      <trkpt lat="44.19112" lon="0.73066">
        <ele>157.6</ele>
        <time>2017-10-12T09:01:55.000Z</time>
      </trkpt>
      <trkpt lat="44.19104" lon="0.73058">
        <ele>157.5</ele>
        <time>2017-10-12T09:02:03.000Z</time>
      </trkpt>
      <trkpt lat="44.19096" lon="0.73052">
        <ele>157.5</ele>
        <time>2017-10-12T09:02:11.000Z</time>
      </trkpt>
      <trkpt lat="44.19089" lon="0.73038">
        <ele>157.4</ele>
        <time>2017-10-12T09:02:19.000Z</time>
      </trkpt>
      <trkpt lat="44.19084" lon="0.73026">
        <ele>157.3</ele>
        <time>2017-10-12T09:02:27.000Z</time>
      </trkpt>
      <trkpt lat="44.19078" lon="0.73016">
        <ele>157.1</ele>
        <time>2017-10-12T09:02:35.000Z</time>
      </trkpt>
      <trkpt lat="44.19073" lon="0.73002">
        <ele>156.9</ele>
        <time>2017-10-12T09:02:43.000Z</time>
      </trkpt>
      <trkpt lat="44.19068" lon="0.7299">
        <ele>156.6</ele>
        <time>2017-10-12T09:02:50.000Z</time>
      </trkpt>
      <trkpt lat="44.19063" lon="0.7298">
        <ele>156.3</ele>
        <time>2017-10-12T09:02:59.000Z</time>
      </trkpt>
      <trkpt lat="44.19059" lon="0.72968">
        <ele>156</ele>
        <time>2017-10-12T09:03:07.000Z</time>
      </trkpt>
      <trkpt lat="44.19053" lon="0.72956">
        <ele>155.6</ele>
        <time>2017-10-12T09:03:15.000Z</time>
      </trkpt>
      <trkpt lat="44.19048" lon="0.72946">
        <ele>155.1</ele>
        <time>2017-10-12T09:03:23.000Z</time>
      </trkpt>
      <trkpt lat="44.19042" lon="0.72935">
        <ele>154.6</ele>
        <time>2017-10-12T09:03:31.000Z</time>
      </trkpt>
      <trkpt lat="44.19037" lon="0.72924">
        <ele>154</ele>
        <time>2017-10-12T09:03:39.000Z</time>
      </trkpt>
      <trkpt lat="44.19032" lon="0.7291">
        <ele>153.1</ele>
        <time>2017-10-12T09:03:47.000Z</time>
      </trkpt>
      <trkpt lat="44.19028" lon="0.72898">
        <ele>151.9</ele>
        <time>2017-10-12T09:03:55.000Z</time>
      </trkpt>
      <trkpt lat="44.19022" lon="0.72887">
        <ele>150.8</ele>
        <time>2017-10-12T09:04:03.000Z</time>
      </trkpt>
      <trkpt lat="44.19016" lon="0.72876">
        <ele>149.6</ele>
        <time>2017-10-12T09:04:12.000Z</time>
      </trkpt>
      <trkpt lat="44.19011" lon="0.72864">
        <ele>148.4</ele>
        <time>2017-10-12T09:04:21.000Z</time>
      </trkpt>
      <trkpt lat="44.19006" lon="0.72854">
        <ele>147.2</ele>
        <time>2017-10-12T09:04:29.000Z</time>
      </trkpt>
      <trkpt lat="44.19001" lon="0.72843">
        <ele>145.9</ele>
        <time>2017-10-12T09:04:37.000Z</time>
      </trkpt>
      <trkpt lat="44.18998" lon="0.72829">
        <ele>143.7</ele>
        <time>2017-10-12T09:04:46.000Z</time>
      </trkpt>
      <trkpt lat="44.18995" lon="0.72815">
        <ele>141</ele>
        <time>2017-10-12T09:04:54.000Z</time>
      </trkpt>
      <trkpt lat="44.18993" lon="0.72803">
        <ele>138.7</ele>
        <time>2017-10-12T09:05:02.000Z</time>
      </trkpt>
      <trkpt lat="44.18992" lon="0.7279">
        <ele>136.7</ele>
        <time>2017-10-12T09:05:09.000Z</time>
      </trkpt>
      <trkpt lat="44.18992" lon="0.72776">
        <ele>134.7</ele>
        <time>2017-10-12T09:05:17.000Z</time>
      </trkpt>
      <trkpt lat="44.18993" lon="0.72763">
        <ele>133.1</ele>
        <time>2017-10-12T09:05:25.000Z</time>
      </trkpt>
      <trkpt lat="44.18995" lon="0.72751">
        <ele>132</ele>
        <time>2017-10-12T09:05:32.000Z</time>
      </trkpt>
      <trkpt lat="44.18999" lon="0.72739">
        <ele>131.1</ele>
        <time>2017-10-12T09:05:39.000Z</time>
      </trkpt>
      <trkpt lat="44.19004" lon="0.72728">
        <ele>130.6</ele>
        <time>2017-10-12T09:05:47.000Z</time>
      </trkpt>
      <trkpt lat="44.1901" lon="0.72718">
        <ele>130.1</ele>
        <time>2017-10-12T09:05:55.000Z</time>
      </trkpt>
      <trkpt lat="44.19016" lon="0.72707">
        <ele>129.7</ele>
        <time>2017-10-12T09:06:06.000Z</time>
      </trkpt>
      <trkpt lat="44.19045" lon="0.72669">
        <ele>129.5</ele>
        <time>2017-10-12T09:06:41.000Z</time>
      </trkpt>
      <trkpt lat="44.19053" lon="0.72665">
        <ele>130</ele>
        <time>2017-10-12T09:06:48.000Z</time>
      </trkpt>
      <trkpt lat="44.19061" lon="0.72658">
        <ele>129.7</ele>
        <time>2017-10-12T09:06:57.000Z</time>
      </trkpt>
      <trkpt lat="44.19053" lon="0.72641">
        <ele>124.3</ele>
        <time>2017-10-12T09:07:07.000Z</time>
      </trkpt>
      <trkpt lat="44.18933" lon="0.72695">
        <ele>114.9</ele>
        <time>2017-10-12T09:08:59.000Z</time>
      </trkpt>
      <trkpt lat="44.18922" lon="0.72692">
        <ele>113.1</ele>
        <time>2017-10-12T09:09:11.000Z</time>
      </trkpt>
      <trkpt lat="44.1891" lon="0.72692">
        <ele>111.7</ele>
        <time>2017-10-12T09:09:22.000Z</time>
      </trkpt>
      <trkpt lat="44.18898" lon="0.727">
        <ele>110.7</ele>
        <time>2017-10-12T09:09:32.000Z</time>
      </trkpt>
      <trkpt lat="44.18885" lon="0.72702">
        <ele>109.4</ele>
        <time>2017-10-12T09:09:42.000Z</time>
      </trkpt>
      <trkpt lat="44.18871" lon="0.72694">
        <ele>108.2</ele>
        <time>2017-10-12T09:09:52.000Z</time>
      </trkpt>
      <trkpt lat="44.1886" lon="0.72689">
        <ele>107.2</ele>
        <time>2017-10-12T09:10:01.000Z</time>
      </trkpt>
      <trkpt lat="44.18854" lon="0.72681">
        <ele>106.6</ele>
        <time>2017-10-12T09:10:11.000Z</time>
      </trkpt>
      <trkpt lat="44.18848" lon="0.72677">
        <ele>106.2</ele>
        <time>2017-10-12T09:10:18.000Z</time>
      </trkpt>
      <trkpt lat="44.18842" lon="0.72672">
        <ele>105.6</ele>
        <time>2017-10-12T09:10:25.000Z</time>
      </trkpt>
      <trkpt lat="44.18834" lon="0.72665">
        <ele>105.1</ele>
        <time>2017-10-12T09:10:33.000Z</time>
      </trkpt>
      <trkpt lat="44.18825" lon="0.72662">
        <ele>104.8</ele>
        <time>2017-10-12T09:10:42.000Z</time>
      </trkpt>
      <trkpt lat="44.18823" lon="0.72664">
        <ele>104.5</ele>
        <time>2017-10-12T09:10:46.000Z</time>
      </trkpt>
      <trkpt lat="44.18819" lon="0.72701">
        <ele>103.8</ele>
        <time>2017-10-12T09:11:19.000Z</time>
      </trkpt>
      <trkpt lat="44.18819" lon="0.72713">
        <ele>103.7</ele>
        <time>2017-10-12T09:11:27.000Z</time>
      </trkpt>
      <trkpt lat="44.18816" lon="0.72726">
        <ele>103.4</ele>
        <time>2017-10-12T09:11:36.000Z</time>
      </trkpt>
      <trkpt lat="44.18813" lon="0.7274">
        <ele>103.1</ele>
        <time>2017-10-12T09:11:45.000Z</time>
      </trkpt>
      <trkpt lat="44.18808" lon="0.72754">
        <ele>102.8</ele>
        <time>2017-10-12T09:11:54.000Z</time>
      </trkpt>
      <trkpt lat="44.18804" lon="0.72767">
        <ele>102.7</ele>
        <time>2017-10-12T09:12:03.000Z</time>
      </trkpt>
      <trkpt lat="44.18799" lon="0.72781">
        <ele>102.5</ele>
        <time>2017-10-12T09:12:12.000Z</time>
      </trkpt>
      <trkpt lat="44.18791" lon="0.72791">
        <ele>102.2</ele>
        <time>2017-10-12T09:12:22.000Z</time>
      </trkpt>
      <trkpt lat="44.18782" lon="0.72802">
        <ele>101.9</ele>
        <time>2017-10-12T09:12:31.000Z</time>
      </trkpt>
      <trkpt lat="44.18775" lon="0.72812">
        <ele>101.7</ele>
        <time>2017-10-12T09:12:39.000Z</time>
      </trkpt>
      <trkpt lat="44.18768" lon="0.72821">
        <ele>101.5</ele>
        <time>2017-10-12T09:12:47.000Z</time>
      </trkpt>
      <trkpt lat="44.18761" lon="0.72831">
        <ele>101.4</ele>
        <time>2017-10-12T09:12:56.000Z</time>
      </trkpt>
      <trkpt lat="44.18757" lon="0.72843">
        <ele>101.3</ele>
        <time>2017-10-12T09:13:04.000Z</time>
      </trkpt>
      <trkpt lat="44.18751" lon="0.72856">
        <ele>101</ele>
        <time>2017-10-12T09:13:12.000Z</time>
      </trkpt>
      <trkpt lat="44.18744" lon="0.72869">
        <ele>100.2</ele>
        <time>2017-10-12T09:13:20.000Z</time>
      </trkpt>
      <trkpt lat="44.18737" lon="0.72882">
        <ele>99.4</ele>
        <time>2017-10-12T09:13:29.000Z</time>
      </trkpt>
      <trkpt lat="44.18732" lon="0.72894">
        <ele>98.7</ele>
        <time>2017-10-12T09:13:37.000Z</time>
      </trkpt>
      <trkpt lat="44.18727" lon="0.72908">
        <ele>98</ele>
        <time>2017-10-12T09:13:45.000Z</time>
      </trkpt>
      <trkpt lat="44.18723" lon="0.72921">
        <ele>97.6</ele>
        <time>2017-10-12T09:13:53.000Z</time>
      </trkpt>
      <trkpt lat="44.18718" lon="0.72933">
        <ele>97.3</ele>
        <time>2017-10-12T09:14:02.000Z</time>
      </trkpt>
      <trkpt lat="44.18714" lon="0.72942">
        <ele>96.9</ele>
        <time>2017-10-12T09:14:10.000Z</time>
      </trkpt>
      <trkpt lat="44.18696" lon="0.72964">
        <ele>94.7</ele>
        <time>2017-10-12T09:33:44.000Z</time>
      </trkpt>
      <trkpt lat="44.18692" lon="0.7297">
        <ele>94.2</ele>
        <time>2017-10-12T09:33:51.000Z</time>
      </trkpt>
      <trkpt lat="44.18678" lon="0.72989">
        <ele>92</ele>
        <time>2017-10-12T09:34:12.000Z</time>
      </trkpt>
      <trkpt lat="44.18676" lon="0.7299">
        <ele>91.7</ele>
        <time>2017-10-12T09:34:16.000Z</time>
      </trkpt>
      <trkpt lat="44.18633" lon="0.73059">
        <ele>90.1</ele>
        <time>2017-10-12T09:36:41.000Z</time>
      </trkpt>
      <trkpt lat="44.18627" lon="0.73071">
        <ele>89.7</ele>
        <time>2017-10-12T09:36:50.000Z</time>
      </trkpt>
      <trkpt lat="44.18622" lon="0.73082">
        <ele>89.5</ele>
        <time>2017-10-12T09:36:58.000Z</time>
      </trkpt>
      <trkpt lat="44.18619" lon="0.73096">
        <ele>89.8</ele>
        <time>2017-10-12T09:37:07.000Z</time>
      </trkpt>
      <trkpt lat="44.18614" lon="0.73108">
        <ele>89.7</ele>
        <time>2017-10-12T09:37:15.000Z</time>
      </trkpt>
      <trkpt lat="44.18609" lon="0.7312">
        <ele>89.5</ele>
        <time>2017-10-12T09:37:23.000Z</time>
      </trkpt>
      <trkpt lat="44.18606" lon="0.73133">
        <ele>89.7</ele>
        <time>2017-10-12T09:37:31.000Z</time>
      </trkpt>
      <trkpt lat="44.18601" lon="0.73145">
        <ele>89.6</ele>
        <time>2017-10-12T09:37:39.000Z</time>
      </trkpt>
      <trkpt lat="44.18597" lon="0.73156">
        <ele>89.4</ele>
        <time>2017-10-12T09:37:47.000Z</time>
      </trkpt>
      <trkpt lat="44.18592" lon="0.73169">
        <ele>89.1</ele>
        <time>2017-10-12T09:37:55.000Z</time>
      </trkpt>
      <trkpt lat="44.18589" lon="0.73182">
        <ele>89.3</ele>
        <time>2017-10-12T09:38:03.000Z</time>
      </trkpt>
      <trkpt lat="44.18583" lon="0.73196">
        <ele>88.9</ele>
        <time>2017-10-12T09:38:10.000Z</time>
      </trkpt>
      <trkpt lat="44.18576" lon="0.73208">
        <ele>88.8</ele>
        <time>2017-10-12T09:38:17.000Z</time>
      </trkpt>
      <trkpt lat="44.18569" lon="0.73222">
        <ele>88.4</ele>
        <time>2017-10-12T09:38:24.000Z</time>
      </trkpt>
      <trkpt lat="44.18563" lon="0.73234">
        <ele>88.1</ele>
        <time>2017-10-12T09:38:32.000Z</time>
      </trkpt>
      <trkpt lat="44.18558" lon="0.73245">
        <ele>87.9</ele>
        <time>2017-10-12T09:38:40.000Z</time>
      </trkpt>
      <trkpt lat="44.18552" lon="0.73257">
        <ele>87.6</ele>
        <time>2017-10-12T09:38:49.000Z</time>
      </trkpt>
      <trkpt lat="44.18547" lon="0.73269">
        <ele>87.3</ele>
        <time>2017-10-12T09:38:59.000Z</time>
      </trkpt>
      <trkpt lat="44.18542" lon="0.73281">
        <ele>87.3</ele>
        <time>2017-10-12T09:39:08.000Z</time>
      </trkpt>
      <trkpt lat="44.18537" lon="0.73294">
        <ele>87.1</ele>
        <time>2017-10-12T09:39:18.000Z</time>
      </trkpt>
      <trkpt lat="44.18531" lon="0.73307">
        <ele>86.6</ele>
        <time>2017-10-12T09:39:28.000Z</time>
      </trkpt>
      <trkpt lat="44.18523" lon="0.7332">
        <ele>85.7</ele>
        <time>2017-10-12T09:39:37.000Z</time>
      </trkpt>
      <trkpt lat="44.18521" lon="0.73323">
        <ele>85.5</ele>
        <time>2017-10-12T09:39:40.000Z</time>
      </trkpt>
      <trkpt lat="44.18495" lon="0.73371">
        <ele>81.9</ele>
        <time>2017-10-12T09:40:24.000Z</time>
      </trkpt>
      <trkpt lat="44.18483" lon="0.73384">
        <ele>80.2</ele>
        <time>2017-10-12T09:40:33.000Z</time>
      </trkpt>
      <trkpt lat="44.1848" lon="0.73394">
        <ele>79.8</ele>
        <time>2017-10-12T09:40:39.000Z</time>
      </trkpt>
      <trkpt lat="44.18473" lon="0.73456">
        <ele>77</ele>
        <time>2017-10-12T09:42:13.000Z</time>
      </trkpt>
      <trkpt lat="44.18479" lon="0.73469">
        <ele>77.5</ele>
        <time>2017-10-12T09:42:24.000Z</time>
      </trkpt>
      <trkpt lat="44.18487" lon="0.7348">
        <ele>78.2</ele>
        <time>2017-10-12T09:42:33.000Z</time>
      </trkpt>
      <trkpt lat="44.18492" lon="0.73493">
        <ele>78.3</ele>
        <time>2017-10-12T09:42:42.000Z</time>
      </trkpt>
      <trkpt lat="44.18498" lon="0.73504">
        <ele>78.4</ele>
        <time>2017-10-12T09:42:51.000Z</time>
      </trkpt>
      <trkpt lat="44.18506" lon="0.73515">
        <ele>78.6</ele>
        <time>2017-10-12T09:43:00.000Z</time>
      </trkpt>
      <trkpt lat="44.18511" lon="0.73527">
        <ele>78.3</ele>
        <time>2017-10-12T09:43:08.000Z</time>
      </trkpt>
      <trkpt lat="44.18516" lon="0.73536">
        <ele>78.1</ele>
        <time>2017-10-12T09:43:16.000Z</time>
      </trkpt>
      <trkpt lat="44.18523" lon="0.73545">
        <ele>78.1</ele>
        <time>2017-10-12T09:43:24.000Z</time>
      </trkpt>
      <trkpt lat="44.1853" lon="0.73555">
        <ele>77.8</ele>
        <time>2017-10-12T09:43:32.000Z</time>
      </trkpt>
      <trkpt lat="44.18536" lon="0.73566">
        <ele>77.2</ele>
        <time>2017-10-12T09:43:41.000Z</time>
      </trkpt>
      <trkpt lat="44.18543" lon="0.73577">
        <ele>76.8</ele>
        <time>2017-10-12T09:43:49.000Z</time>
      </trkpt>
      <trkpt lat="44.18549" lon="0.73588">
        <ele>76.5</ele>
        <time>2017-10-12T09:43:58.000Z</time>
      </trkpt>
      <trkpt lat="44.18554" lon="0.736">
        <ele>76.9</ele>
        <time>2017-10-12T09:44:06.000Z</time>
      </trkpt>
      <trkpt lat="44.18555" lon="0.73613">
        <ele>77</ele>
        <time>2017-10-12T09:44:14.000Z</time>
      </trkpt>
      <trkpt lat="44.18556" lon="0.73626">
        <ele>77</ele>
        <time>2017-10-12T09:44:22.000Z</time>
      </trkpt>
      <trkpt lat="44.18553" lon="0.73638">
        <ele>76.9</ele>
        <time>2017-10-12T09:44:30.000Z</time>
      </trkpt>
      <trkpt lat="44.1855" lon="0.73649">
        <ele>76.8</ele>
        <time>2017-10-12T09:44:39.000Z</time>
      </trkpt>
      <trkpt lat="44.18545" lon="0.7366">
        <ele>76.6</ele>
        <time>2017-10-12T09:44:47.000Z</time>
      </trkpt>
      <trkpt lat="44.18541" lon="0.73671">
        <ele>76.9</ele>
        <time>2017-10-12T09:44:56.000Z</time>
      </trkpt>
      <trkpt lat="44.18544" lon="0.73682">
        <ele>78.1</ele>
        <time>2017-10-12T09:45:06.000Z</time>
      </trkpt>
      <trkpt lat="44.1855" lon="0.73684">
        <ele>78.6</ele>
        <time>2017-10-12T09:45:15.000Z</time>
      </trkpt>
      <trkpt lat="44.1856" lon="0.73685">
        <ele>79</ele>
        <time>2017-10-12T09:45:24.000Z</time>
      </trkpt>
      <trkpt lat="44.18569" lon="0.73687">
        <ele>79.7</ele>
        <time>2017-10-12T09:45:33.000Z</time>
      </trkpt>
      <trkpt lat="44.18579" lon="0.73689">
        <ele>80.2</ele>
        <time>2017-10-12T09:45:42.000Z</time>
      </trkpt>
      <trkpt lat="44.18588" lon="0.73689">
        <ele>80.6</ele>
        <time>2017-10-12T09:45:50.000Z</time>
      </trkpt>
      <trkpt lat="44.18598" lon="0.73692">
        <ele>81.1</ele>
        <time>2017-10-12T09:45:59.000Z</time>
      </trkpt>
      <trkpt lat="44.18608" lon="0.73696">
        <ele>81.8</ele>
        <time>2017-10-12T09:46:08.000Z</time>
      </trkpt>
      <trkpt lat="44.18618" lon="0.73698">
        <ele>82.2</ele>
        <time>2017-10-12T09:46:17.000Z</time>
      </trkpt>
      <trkpt lat="44.18627" lon="0.737">
        <ele>82.6</ele>
        <time>2017-10-12T09:46:26.000Z</time>
      </trkpt>
      <trkpt lat="44.18637" lon="0.73701">
        <ele>82.8</ele>
        <time>2017-10-12T09:46:35.000Z</time>
      </trkpt>
      <trkpt lat="44.18646" lon="0.73701">
        <ele>83</ele>
        <time>2017-10-12T09:46:45.000Z</time>
      </trkpt>
      <trkpt lat="44.18656" lon="0.73701">
        <ele>83.2</ele>
        <time>2017-10-12T09:46:55.000Z</time>
      </trkpt>
      <trkpt lat="44.18666" lon="0.73697">
        <ele>83.2</ele>
        <time>2017-10-12T09:47:04.000Z</time>
      </trkpt>
      <trkpt lat="44.18674" lon="0.73694">
        <ele>83.5</ele>
        <time>2017-10-12T09:47:14.000Z</time>
      </trkpt>
      <trkpt lat="44.18677" lon="0.73692">
        <ele>83.6</ele>
        <time>2017-10-12T09:47:18.000Z</time>
      </trkpt>
    </trkseg>
  </trk>
</gpx>